<?xml version="1.0" encoding="UTF-8" standalone="no" ?>
<gpx xmlns="http://www.topografix.com/GPX/1/1" xmlns:xsi="http://www.w3.org/2001/XMLSchema-instance" xsi:schemaLocation="http://www.topografix.com/GPX/1/1 http://www.topografix.com/GPX/1/1/gpx.xsd" version="1.1" creator="VisuGPX - https://www.visugpx.com">
  <metadata>
    <name>vallon Sourn à Correns</name>
    <desc><![CDATA[balade du mercredi 8 juin 2011
au vallon Sourn au nord-ouest de Correns
accompagnateur : Michel AUFFRET
17 randonneurs]]></desc>
  </metadata>
  <trk>
    <name><![CDATA[2011-06-08-vallon sourn]]></name>
    <trkseg>
      <trkpt lat="43.49653" lon="6.05544">
        <ele>182</ele>
        <time>2011-06-08T12:15:41Z</time>
      </trkpt>
      <trkpt lat="43.49661" lon="6.05551">
        <ele>163</ele>
        <time>2011-06-08T12:16:15Z</time>
      </trkpt>
      <trkpt lat="43.4967" lon="6.05548">
        <ele>176</ele>
        <time>2011-06-08T12:16:39Z</time>
      </trkpt>
      <trkpt lat="43.49671" lon="6.05548">
        <ele>176.300003</ele>
        <time>2011-06-08T12:16:40Z</time>
      </trkpt>
      <trkpt lat="43.49672" lon="6.05547">
        <ele>171.899994</ele>
        <time>2011-06-08T12:17:29Z</time>
      </trkpt>
      <trkpt lat="43.49663" lon="6.05549">
        <ele>173</ele>
        <time>2011-06-08T12:17:35Z</time>
      </trkpt>
      <trkpt lat="43.49671" lon="6.05545">
        <ele>183</ele>
        <time>2011-06-08T12:18:22Z</time>
      </trkpt>
      <trkpt lat="43.49672" lon="6.05545">
        <ele>182.899994</ele>
        <time>2011-06-08T12:18:23Z</time>
      </trkpt>
      <trkpt lat="43.49682" lon="6.05528">
        <ele>179.399994</ele>
        <time>2011-06-08T12:18:45Z</time>
      </trkpt>
      <trkpt lat="43.4969" lon="6.05523">
        <ele>176.600006</ele>
        <time>2011-06-08T12:19:02Z</time>
      </trkpt>
      <trkpt lat="43.49697" lon="6.05518">
        <ele>171.699997</ele>
        <time>2011-06-08T12:19:21Z</time>
      </trkpt>
      <trkpt lat="43.49705" lon="6.05513">
        <ele>169.399994</ele>
        <time>2011-06-08T12:19:30Z</time>
      </trkpt>
      <trkpt lat="43.49706" lon="6.05513">
        <ele>169.199997</ele>
        <time>2011-06-08T12:19:31Z</time>
      </trkpt>
      <trkpt lat="43.49719" lon="6.05508">
        <ele>177.800003</ele>
        <time>2011-06-08T12:19:42Z</time>
      </trkpt>
      <trkpt lat="43.49729" lon="6.05504">
        <ele>192</ele>
        <time>2011-06-08T12:19:48Z</time>
      </trkpt>
      <trkpt lat="43.49736" lon="6.05499">
        <ele>199</ele>
        <time>2011-06-08T12:20:00Z</time>
      </trkpt>
      <trkpt lat="43.49745" lon="6.05501">
        <ele>203.199997</ele>
        <time>2011-06-08T12:20:11Z</time>
      </trkpt>
      <trkpt lat="43.49753" lon="6.05498">
        <ele>202.899994</ele>
        <time>2011-06-08T12:20:23Z</time>
      </trkpt>
      <trkpt lat="43.4976" lon="6.05504">
        <ele>211.5</ele>
        <time>2011-06-08T12:20:32Z</time>
      </trkpt>
      <trkpt lat="43.49761" lon="6.05505">
        <ele>212.699997</ele>
        <time>2011-06-08T12:20:33Z</time>
      </trkpt>
      <trkpt lat="43.49776" lon="6.05513">
        <ele>230.899994</ele>
        <time>2011-06-08T12:20:56Z</time>
      </trkpt>
      <trkpt lat="43.49785" lon="6.05514">
        <ele>236.100006</ele>
        <time>2011-06-08T12:21:10Z</time>
      </trkpt>
      <trkpt lat="43.49791" lon="6.05506">
        <ele>230.899994</ele>
        <time>2011-06-08T12:21:21Z</time>
      </trkpt>
      <trkpt lat="43.49795" lon="6.05495">
        <ele>219.100006</ele>
        <time>2011-06-08T12:21:34Z</time>
      </trkpt>
      <trkpt lat="43.49795" lon="6.05494">
        <ele>218.399994</ele>
        <time>2011-06-08T12:21:35Z</time>
      </trkpt>
      <trkpt lat="43.49809" lon="6.05483">
        <ele>222</ele>
        <time>2011-06-08T12:21:58Z</time>
      </trkpt>
      <trkpt lat="43.49816" lon="6.05476">
        <ele>222.300003</ele>
        <time>2011-06-08T12:22:06Z</time>
      </trkpt>
      <trkpt lat="43.49824" lon="6.0547">
        <ele>222.600006</ele>
        <time>2011-06-08T12:22:16Z</time>
      </trkpt>
      <trkpt lat="43.49829" lon="6.05462">
        <ele>222.699997</ele>
        <time>2011-06-08T12:22:26Z</time>
      </trkpt>
      <trkpt lat="43.49836" lon="6.05456">
        <ele>221.800003</ele>
        <time>2011-06-08T12:22:34Z</time>
      </trkpt>
      <trkpt lat="43.49841" lon="6.05446">
        <ele>220.199997</ele>
        <time>2011-06-08T12:22:46Z</time>
      </trkpt>
      <trkpt lat="43.49842" lon="6.05446">
        <ele>219.899994</ele>
        <time>2011-06-08T12:22:47Z</time>
      </trkpt>
      <trkpt lat="43.49857" lon="6.05441">
        <ele>227</ele>
        <time>2011-06-08T12:23:17Z</time>
      </trkpt>
      <trkpt lat="43.49863" lon="6.05433">
        <ele>223.600006</ele>
        <time>2011-06-08T12:23:32Z</time>
      </trkpt>
      <trkpt lat="43.49869" lon="6.05423">
        <ele>216.899994</ele>
        <time>2011-06-08T12:23:43Z</time>
      </trkpt>
      <trkpt lat="43.49876" lon="6.05418">
        <ele>216.899994</ele>
        <time>2011-06-08T12:23:53Z</time>
      </trkpt>
      <trkpt lat="43.49876" lon="6.05416">
        <ele>216.699997</ele>
        <time>2011-06-08T12:23:54Z</time>
      </trkpt>
      <trkpt lat="43.49892" lon="6.05414">
        <ele>217</ele>
        <time>2011-06-08T12:24:12Z</time>
      </trkpt>
      <trkpt lat="43.49901" lon="6.05414">
        <ele>217.199997</ele>
        <time>2011-06-08T12:24:22Z</time>
      </trkpt>
      <trkpt lat="43.49908" lon="6.05409">
        <ele>218</ele>
        <time>2011-06-08T12:24:36Z</time>
      </trkpt>
      <trkpt lat="43.49916" lon="6.05405">
        <ele>218.100006</ele>
        <time>2011-06-08T12:24:54Z</time>
      </trkpt>
      <trkpt lat="43.49917" lon="6.05405">
        <ele>218.100006</ele>
        <time>2011-06-08T12:24:55Z</time>
      </trkpt>
      <trkpt lat="43.4993" lon="6.05391">
        <ele>220.5</ele>
        <time>2011-06-08T12:25:21Z</time>
      </trkpt>
      <trkpt lat="43.49935" lon="6.05381">
        <ele>221.5</ele>
        <time>2011-06-08T12:25:38Z</time>
      </trkpt>
      <trkpt lat="43.49943" lon="6.05378">
        <ele>222.399994</ele>
        <time>2011-06-08T12:25:50Z</time>
      </trkpt>
      <trkpt lat="43.49952" lon="6.05376">
        <ele>225.300003</ele>
        <time>2011-06-08T12:26:17Z</time>
      </trkpt>
      <trkpt lat="43.49952" lon="6.05375">
        <ele>225.300003</ele>
        <time>2011-06-08T12:26:18Z</time>
      </trkpt>
      <trkpt lat="43.49962" lon="6.05362">
        <ele>227.699997</ele>
        <time>2011-06-08T12:26:46Z</time>
      </trkpt>
      <trkpt lat="43.4997" lon="6.05359">
        <ele>227.600006</ele>
        <time>2011-06-08T12:26:51Z</time>
      </trkpt>
      <trkpt lat="43.49978" lon="6.05355">
        <ele>228.5</ele>
        <time>2011-06-08T12:27:01Z</time>
      </trkpt>
      <trkpt lat="43.49985" lon="6.05348">
        <ele>229.699997</ele>
        <time>2011-06-08T12:27:16Z</time>
      </trkpt>
      <trkpt lat="43.49993" lon="6.05342">
        <ele>230.899994</ele>
        <time>2011-06-08T12:27:29Z</time>
      </trkpt>
      <trkpt lat="43.49993" lon="6.05342">
        <ele>230.899994</ele>
        <time>2011-06-08T12:27:30Z</time>
      </trkpt>
      <trkpt lat="43.50006" lon="6.05327">
        <ele>232.300003</ele>
        <time>2011-06-08T12:27:54Z</time>
      </trkpt>
      <trkpt lat="43.50011" lon="6.05317">
        <ele>233.300003</ele>
        <time>2011-06-08T12:28:08Z</time>
      </trkpt>
      <trkpt lat="43.50017" lon="6.05308">
        <ele>234.899994</ele>
        <time>2011-06-08T12:28:21Z</time>
      </trkpt>
      <trkpt lat="43.50023" lon="6.053">
        <ele>235.899994</ele>
        <time>2011-06-08T12:28:38Z</time>
      </trkpt>
      <trkpt lat="43.50023" lon="6.05299">
        <ele>235.899994</ele>
        <time>2011-06-08T12:28:39Z</time>
      </trkpt>
      <trkpt lat="43.50036" lon="6.05285">
        <ele>238.5</ele>
        <time>2011-06-08T12:29:02Z</time>
      </trkpt>
      <trkpt lat="43.50042" lon="6.05277">
        <ele>240.399994</ele>
        <time>2011-06-08T12:29:16Z</time>
      </trkpt>
      <trkpt lat="43.5005" lon="6.05273">
        <ele>241.699997</ele>
        <time>2011-06-08T12:29:28Z</time>
      </trkpt>
      <trkpt lat="43.50058" lon="6.05266">
        <ele>243.300003</ele>
        <time>2011-06-08T12:29:42Z</time>
      </trkpt>
      <trkpt lat="43.50059" lon="6.05266">
        <ele>243.5</ele>
        <time>2011-06-08T12:29:43Z</time>
      </trkpt>
      <trkpt lat="43.50073" lon="6.05255">
        <ele>245.899994</ele>
        <time>2011-06-08T12:30:05Z</time>
      </trkpt>
      <trkpt lat="43.50081" lon="6.0525">
        <ele>247.699997</ele>
        <time>2011-06-08T12:30:21Z</time>
      </trkpt>
      <trkpt lat="43.5009" lon="6.05247">
        <ele>249.399994</ele>
        <time>2011-06-08T12:30:31Z</time>
      </trkpt>
      <trkpt lat="43.50098" lon="6.05243">
        <ele>249.399994</ele>
        <time>2011-06-08T12:30:41Z</time>
      </trkpt>
      <trkpt lat="43.50106" lon="6.05237">
        <ele>250.399994</ele>
        <time>2011-06-08T12:31:00Z</time>
      </trkpt>
      <trkpt lat="43.50107" lon="6.05236">
        <ele>250.300003</ele>
        <time>2011-06-08T12:31:01Z</time>
      </trkpt>
      <trkpt lat="43.50121" lon="6.05229">
        <ele>251.800003</ele>
        <time>2011-06-08T12:31:22Z</time>
      </trkpt>
      <trkpt lat="43.50129" lon="6.05225">
        <ele>253</ele>
        <time>2011-06-08T12:31:34Z</time>
      </trkpt>
      <trkpt lat="43.50138" lon="6.05223">
        <ele>253.899994</ele>
        <time>2011-06-08T12:31:44Z</time>
      </trkpt>
      <trkpt lat="43.50147" lon="6.05222">
        <ele>256.100006</ele>
        <time>2011-06-08T12:31:57Z</time>
      </trkpt>
      <trkpt lat="43.50155" lon="6.05216">
        <ele>256.100006</ele>
        <time>2011-06-08T12:32:10Z</time>
      </trkpt>
      <trkpt lat="43.50156" lon="6.05216">
        <ele>256.399994</ele>
        <time>2011-06-08T12:32:11Z</time>
      </trkpt>
      <trkpt lat="43.50169" lon="6.05203">
        <ele>257</ele>
        <time>2011-06-08T12:32:38Z</time>
      </trkpt>
      <trkpt lat="43.50177" lon="6.05198">
        <ele>258.899994</ele>
        <time>2011-06-08T12:32:53Z</time>
      </trkpt>
      <trkpt lat="43.50185" lon="6.05195">
        <ele>260.600006</ele>
        <time>2011-06-08T12:33:06Z</time>
      </trkpt>
      <trkpt lat="43.50192" lon="6.05188">
        <ele>261.899994</ele>
        <time>2011-06-08T12:33:17Z</time>
      </trkpt>
      <trkpt lat="43.50193" lon="6.05188">
        <ele>261.899994</ele>
        <time>2011-06-08T12:33:18Z</time>
      </trkpt>
      <trkpt lat="43.50207" lon="6.05176">
        <ele>263.799988</ele>
        <time>2011-06-08T12:33:37Z</time>
      </trkpt>
      <trkpt lat="43.50215" lon="6.05171">
        <ele>264.399994</ele>
        <time>2011-06-08T12:33:48Z</time>
      </trkpt>
      <trkpt lat="43.50223" lon="6.0517">
        <ele>265.399994</ele>
        <time>2011-06-08T12:34:00Z</time>
      </trkpt>
      <trkpt lat="43.50231" lon="6.05175">
        <ele>265.100006</ele>
        <time>2011-06-08T12:34:13Z</time>
      </trkpt>
      <trkpt lat="43.50239" lon="6.05176">
        <ele>266.200012</ele>
        <time>2011-06-08T12:34:23Z</time>
      </trkpt>
      <trkpt lat="43.5024" lon="6.05176">
        <ele>266.299988</ele>
        <time>2011-06-08T12:34:24Z</time>
      </trkpt>
      <trkpt lat="43.50256" lon="6.05172">
        <ele>267.200012</ele>
        <time>2011-06-08T12:34:41Z</time>
      </trkpt>
      <trkpt lat="43.50265" lon="6.05169">
        <ele>266.899994</ele>
        <time>2011-06-08T12:34:49Z</time>
      </trkpt>
      <trkpt lat="43.50273" lon="6.05164">
        <ele>267.5</ele>
        <time>2011-06-08T12:34:57Z</time>
      </trkpt>
      <trkpt lat="43.50281" lon="6.05159">
        <ele>268.799988</ele>
        <time>2011-06-08T12:35:07Z</time>
      </trkpt>
      <trkpt lat="43.50289" lon="6.05155">
        <ele>269</ele>
        <time>2011-06-08T12:35:17Z</time>
      </trkpt>
      <trkpt lat="43.50296" lon="6.05149">
        <ele>270.200012</ele>
        <time>2011-06-08T12:35:26Z</time>
      </trkpt>
      <trkpt lat="43.50297" lon="6.05148">
        <ele>270.299988</ele>
        <time>2011-06-08T12:35:27Z</time>
      </trkpt>
      <trkpt lat="43.5031" lon="6.05135">
        <ele>271.600006</ele>
        <time>2011-06-08T12:35:43Z</time>
      </trkpt>
      <trkpt lat="43.50318" lon="6.05129">
        <ele>272.5</ele>
        <time>2011-06-08T12:35:53Z</time>
      </trkpt>
      <trkpt lat="43.50326" lon="6.05124">
        <ele>274.100006</ele>
        <time>2011-06-08T12:36:03Z</time>
      </trkpt>
      <trkpt lat="43.50334" lon="6.0512">
        <ele>274.299988</ele>
        <time>2011-06-08T12:36:12Z</time>
      </trkpt>
      <trkpt lat="43.50343" lon="6.05117">
        <ele>274.5</ele>
        <time>2011-06-08T12:36:22Z</time>
      </trkpt>
      <trkpt lat="43.50339" lon="6.05128">
        <ele>278.799988</ele>
        <time>2011-06-08T12:36:58Z</time>
      </trkpt>
      <trkpt lat="43.50339" lon="6.05129">
        <ele>279.100006</ele>
        <time>2011-06-08T12:36:59Z</time>
      </trkpt>
      <trkpt lat="43.5034" lon="6.05143">
        <ele>283</ele>
        <time>2011-06-08T12:37:30Z</time>
      </trkpt>
      <trkpt lat="43.50349" lon="6.05143">
        <ele>284.299988</ele>
        <time>2011-06-08T12:37:41Z</time>
      </trkpt>
      <trkpt lat="43.50357" lon="6.0514">
        <ele>285.700012</ele>
        <time>2011-06-08T12:37:52Z</time>
      </trkpt>
      <trkpt lat="43.50366" lon="6.05138">
        <ele>286.600006</ele>
        <time>2011-06-08T12:38:03Z</time>
      </trkpt>
      <trkpt lat="43.50367" lon="6.05138">
        <ele>286.700012</ele>
        <time>2011-06-08T12:38:04Z</time>
      </trkpt>
      <trkpt lat="43.50383" lon="6.05136">
        <ele>288.600006</ele>
        <time>2011-06-08T12:38:23Z</time>
      </trkpt>
      <trkpt lat="43.50391" lon="6.05133">
        <ele>290.100006</ele>
        <time>2011-06-08T12:38:34Z</time>
      </trkpt>
      <trkpt lat="43.504" lon="6.05133">
        <ele>291.399994</ele>
        <time>2011-06-08T12:38:45Z</time>
      </trkpt>
      <trkpt lat="43.50408" lon="6.05131">
        <ele>292.700012</ele>
        <time>2011-06-08T12:38:57Z</time>
      </trkpt>
      <trkpt lat="43.50416" lon="6.05129">
        <ele>294.399994</ele>
        <time>2011-06-08T12:39:07Z</time>
      </trkpt>
      <trkpt lat="43.50417" lon="6.05129">
        <ele>294.799988</ele>
        <time>2011-06-08T12:39:08Z</time>
      </trkpt>
      <trkpt lat="43.50433" lon="6.05127">
        <ele>297.299988</ele>
        <time>2011-06-08T12:39:29Z</time>
      </trkpt>
      <trkpt lat="43.50441" lon="6.05126">
        <ele>298.5</ele>
        <time>2011-06-08T12:39:39Z</time>
      </trkpt>
      <trkpt lat="43.5045" lon="6.05124">
        <ele>299</ele>
        <time>2011-06-08T12:39:49Z</time>
      </trkpt>
      <trkpt lat="43.50458" lon="6.05122">
        <ele>300.799988</ele>
        <time>2011-06-08T12:40:00Z</time>
      </trkpt>
      <trkpt lat="43.50466" lon="6.05121">
        <ele>302.799988</ele>
        <time>2011-06-08T12:40:10Z</time>
      </trkpt>
      <trkpt lat="43.50467" lon="6.05121">
        <ele>303</ele>
        <time>2011-06-08T12:40:11Z</time>
      </trkpt>
      <trkpt lat="43.50484" lon="6.05117">
        <ele>305.799988</ele>
        <time>2011-06-08T12:40:32Z</time>
      </trkpt>
      <trkpt lat="43.50493" lon="6.05118">
        <ele>305.200012</ele>
        <time>2011-06-08T12:40:43Z</time>
      </trkpt>
      <trkpt lat="43.50501" lon="6.05118">
        <ele>306.200012</ele>
        <time>2011-06-08T12:40:54Z</time>
      </trkpt>
      <trkpt lat="43.50509" lon="6.0512">
        <ele>308</ele>
        <time>2011-06-08T12:41:05Z</time>
      </trkpt>
      <trkpt lat="43.50517" lon="6.05122">
        <ele>308.600006</ele>
        <time>2011-06-08T12:41:15Z</time>
      </trkpt>
      <trkpt lat="43.50518" lon="6.05123">
        <ele>308.700012</ele>
        <time>2011-06-08T12:41:16Z</time>
      </trkpt>
      <trkpt lat="43.50535" lon="6.05127">
        <ele>311.799988</ele>
        <time>2011-06-08T12:41:37Z</time>
      </trkpt>
      <trkpt lat="43.50543" lon="6.05129">
        <ele>313.600006</ele>
        <time>2011-06-08T12:41:48Z</time>
      </trkpt>
      <trkpt lat="43.50552" lon="6.05129">
        <ele>315.5</ele>
        <time>2011-06-08T12:41:58Z</time>
      </trkpt>
      <trkpt lat="43.50561" lon="6.05132">
        <ele>316.399994</ele>
        <time>2011-06-08T12:42:08Z</time>
      </trkpt>
      <trkpt lat="43.50569" lon="6.05135">
        <ele>317.700012</ele>
        <time>2011-06-08T12:42:19Z</time>
      </trkpt>
      <trkpt lat="43.5057" lon="6.05135">
        <ele>318</ele>
        <time>2011-06-08T12:42:20Z</time>
      </trkpt>
      <trkpt lat="43.50586" lon="6.0514">
        <ele>321.899994</ele>
        <time>2011-06-08T12:42:43Z</time>
      </trkpt>
      <trkpt lat="43.50594" lon="6.05145">
        <ele>323.399994</ele>
        <time>2011-06-08T12:42:56Z</time>
      </trkpt>
      <trkpt lat="43.50601" lon="6.05153">
        <ele>326.700012</ele>
        <time>2011-06-08T12:43:10Z</time>
      </trkpt>
      <trkpt lat="43.50604" lon="6.05164">
        <ele>329</ele>
        <time>2011-06-08T12:43:26Z</time>
      </trkpt>
      <trkpt lat="43.50604" lon="6.05165">
        <ele>329</ele>
        <time>2011-06-08T12:43:27Z</time>
      </trkpt>
      <trkpt lat="43.50612" lon="6.05185">
        <ele>331.700012</ele>
        <time>2011-06-08T12:43:58Z</time>
      </trkpt>
      <trkpt lat="43.50615" lon="6.05196">
        <ele>332.299988</ele>
        <time>2011-06-08T12:44:13Z</time>
      </trkpt>
      <trkpt lat="43.50621" lon="6.05204">
        <ele>333.700012</ele>
        <time>2011-06-08T12:44:24Z</time>
      </trkpt>
      <trkpt lat="43.50628" lon="6.05211">
        <ele>334.100006</ele>
        <time>2011-06-08T12:44:35Z</time>
      </trkpt>
      <trkpt lat="43.50629" lon="6.05212">
        <ele>334.100006</ele>
        <time>2011-06-08T12:44:36Z</time>
      </trkpt>
      <trkpt lat="43.50644" lon="6.05211">
        <ele>336.5</ele>
        <time>2011-06-08T12:44:59Z</time>
      </trkpt>
      <trkpt lat="43.50652" lon="6.05207">
        <ele>337.399994</ele>
        <time>2011-06-08T12:45:10Z</time>
      </trkpt>
      <trkpt lat="43.50661" lon="6.05205">
        <ele>338.5</ele>
        <time>2011-06-08T12:45:22Z</time>
      </trkpt>
      <trkpt lat="43.5067" lon="6.05206">
        <ele>339.700012</ele>
        <time>2011-06-08T12:45:33Z</time>
      </trkpt>
      <trkpt lat="43.50677" lon="6.052">
        <ele>340.899994</ele>
        <time>2011-06-08T12:45:44Z</time>
      </trkpt>
      <trkpt lat="43.50678" lon="6.05199">
        <ele>341</ele>
        <time>2011-06-08T12:45:45Z</time>
      </trkpt>
      <trkpt lat="43.5069" lon="6.05184">
        <ele>341.799988</ele>
        <time>2011-06-08T12:46:04Z</time>
      </trkpt>
      <trkpt lat="43.50696" lon="6.05176">
        <ele>342.799988</ele>
        <time>2011-06-08T12:46:15Z</time>
      </trkpt>
      <trkpt lat="43.50703" lon="6.05168">
        <ele>344.200012</ele>
        <time>2011-06-08T12:46:27Z</time>
      </trkpt>
      <trkpt lat="43.50709" lon="6.05159">
        <ele>344.299988</ele>
        <time>2011-06-08T12:46:37Z</time>
      </trkpt>
      <trkpt lat="43.50713" lon="6.05149">
        <ele>344.700012</ele>
        <time>2011-06-08T12:46:48Z</time>
      </trkpt>
      <trkpt lat="43.50714" lon="6.05147">
        <ele>344.600006</ele>
        <time>2011-06-08T12:46:49Z</time>
      </trkpt>
      <trkpt lat="43.50727" lon="6.05134">
        <ele>344.700012</ele>
        <time>2011-06-08T12:47:06Z</time>
      </trkpt>
      <trkpt lat="43.50733" lon="6.05126">
        <ele>343.899994</ele>
        <time>2011-06-08T12:47:16Z</time>
      </trkpt>
      <trkpt lat="43.50739" lon="6.05118">
        <ele>342.700012</ele>
        <time>2011-06-08T12:47:24Z</time>
      </trkpt>
      <trkpt lat="43.50745" lon="6.0511">
        <ele>343</ele>
        <time>2011-06-08T12:47:32Z</time>
      </trkpt>
      <trkpt lat="43.5075" lon="6.05101">
        <ele>342.100006</ele>
        <time>2011-06-08T12:47:40Z</time>
      </trkpt>
      <trkpt lat="43.50754" lon="6.0509">
        <ele>341.200012</ele>
        <time>2011-06-08T12:47:51Z</time>
      </trkpt>
      <trkpt lat="43.50754" lon="6.05089">
        <ele>341</ele>
        <time>2011-06-08T12:47:52Z</time>
      </trkpt>
      <trkpt lat="43.50762" lon="6.0507">
        <ele>340.700012</ele>
        <time>2011-06-08T12:48:10Z</time>
      </trkpt>
      <trkpt lat="43.50767" lon="6.05061">
        <ele>340.100006</ele>
        <time>2011-06-08T12:48:17Z</time>
      </trkpt>
      <trkpt lat="43.50772" lon="6.05052">
        <ele>339.799988</ele>
        <time>2011-06-08T12:48:25Z</time>
      </trkpt>
      <trkpt lat="43.50778" lon="6.05042">
        <ele>339.600006</ele>
        <time>2011-06-08T12:48:34Z</time>
      </trkpt>
      <trkpt lat="43.50783" lon="6.05032">
        <ele>340</ele>
        <time>2011-06-08T12:48:43Z</time>
      </trkpt>
      <trkpt lat="43.50787" lon="6.05024">
        <ele>340.100006</ele>
        <time>2011-06-08T12:48:50Z</time>
      </trkpt>
      <trkpt lat="43.50792" lon="6.05014">
        <ele>340.899994</ele>
        <time>2011-06-08T12:48:58Z</time>
      </trkpt>
      <trkpt lat="43.50793" lon="6.05013">
        <ele>340.799988</ele>
        <time>2011-06-08T12:48:59Z</time>
      </trkpt>
      <trkpt lat="43.50806" lon="6.05">
        <ele>339.799988</ele>
        <time>2011-06-08T12:49:17Z</time>
      </trkpt>
      <trkpt lat="43.50813" lon="6.04993">
        <ele>339.700012</ele>
        <time>2011-06-08T12:49:25Z</time>
      </trkpt>
      <trkpt lat="43.5082" lon="6.04986">
        <ele>339.5</ele>
        <time>2011-06-08T12:49:33Z</time>
      </trkpt>
      <trkpt lat="43.50825" lon="6.04977">
        <ele>338.700012</ele>
        <time>2011-06-08T12:49:41Z</time>
      </trkpt>
      <trkpt lat="43.50829" lon="6.04967">
        <ele>337.799988</ele>
        <time>2011-06-08T12:49:50Z</time>
      </trkpt>
      <trkpt lat="43.50833" lon="6.04957">
        <ele>336.799988</ele>
        <time>2011-06-08T12:49:59Z</time>
      </trkpt>
      <trkpt lat="43.50833" lon="6.04956">
        <ele>336.600006</ele>
        <time>2011-06-08T12:50:00Z</time>
      </trkpt>
      <trkpt lat="43.50836" lon="6.04935">
        <ele>334.700012</ele>
        <time>2011-06-08T12:50:18Z</time>
      </trkpt>
      <trkpt lat="43.50838" lon="6.04924">
        <ele>332.100006</ele>
        <time>2011-06-08T12:50:29Z</time>
      </trkpt>
      <trkpt lat="43.50838" lon="6.04912">
        <ele>330.399994</ele>
        <time>2011-06-08T12:50:37Z</time>
      </trkpt>
      <trkpt lat="43.5084" lon="6.049">
        <ele>328.799988</ele>
        <time>2011-06-08T12:50:46Z</time>
      </trkpt>
      <trkpt lat="43.50846" lon="6.04892">
        <ele>328.100006</ele>
        <time>2011-06-08T12:50:56Z</time>
      </trkpt>
      <trkpt lat="43.50851" lon="6.04883">
        <ele>328</ele>
        <time>2011-06-08T12:51:04Z</time>
      </trkpt>
      <trkpt lat="43.50851" lon="6.04881">
        <ele>328.200012</ele>
        <time>2011-06-08T12:51:05Z</time>
      </trkpt>
      <trkpt lat="43.50848" lon="6.0486">
        <ele>327.700012</ele>
        <time>2011-06-08T12:51:19Z</time>
      </trkpt>
      <trkpt lat="43.50844" lon="6.04849">
        <ele>326.100006</ele>
        <time>2011-06-08T12:51:54Z</time>
      </trkpt>
      <trkpt lat="43.50844" lon="6.04837">
        <ele>326.600006</ele>
        <time>2011-06-08T12:55:26Z</time>
      </trkpt>
      <trkpt lat="43.50844" lon="6.04836">
        <ele>326.299988</ele>
        <time>2011-06-08T12:55:27Z</time>
      </trkpt>
      <trkpt lat="43.50855" lon="6.04819">
        <ele>328.5</ele>
        <time>2011-06-08T12:56:08Z</time>
      </trkpt>
      <trkpt lat="43.50856" lon="6.04807">
        <ele>329.399994</ele>
        <time>2011-06-08T12:56:23Z</time>
      </trkpt>
      <trkpt lat="43.50849" lon="6.048">
        <ele>330.899994</ele>
        <time>2011-06-08T12:56:33Z</time>
      </trkpt>
      <trkpt lat="43.50848" lon="6.04799">
        <ele>331.200012</ele>
        <time>2011-06-08T12:56:34Z</time>
      </trkpt>
      <trkpt lat="43.50836" lon="6.04785">
        <ele>332.100006</ele>
        <time>2011-06-08T12:56:49Z</time>
      </trkpt>
      <trkpt lat="43.50833" lon="6.04774">
        <ele>332.600006</ele>
        <time>2011-06-08T12:56:57Z</time>
      </trkpt>
      <trkpt lat="43.50829" lon="6.04764">
        <ele>332.299988</ele>
        <time>2011-06-08T12:57:04Z</time>
      </trkpt>
      <trkpt lat="43.50824" lon="6.04754">
        <ele>331.799988</ele>
        <time>2011-06-08T12:57:12Z</time>
      </trkpt>
      <trkpt lat="43.50816" lon="6.04749">
        <ele>331.200012</ele>
        <time>2011-06-08T12:57:20Z</time>
      </trkpt>
      <trkpt lat="43.50808" lon="6.04744">
        <ele>329.299988</ele>
        <time>2011-06-08T12:57:28Z</time>
      </trkpt>
      <trkpt lat="43.50801" lon="6.04738">
        <ele>330.100006</ele>
        <time>2011-06-08T12:57:37Z</time>
      </trkpt>
      <trkpt lat="43.508" lon="6.04737">
        <ele>330.399994</ele>
        <time>2011-06-08T12:57:38Z</time>
      </trkpt>
      <trkpt lat="43.50793" lon="6.04719">
        <ele>331.100006</ele>
        <time>2011-06-08T12:57:53Z</time>
      </trkpt>
      <trkpt lat="43.50794" lon="6.04706">
        <ele>331.899994</ele>
        <time>2011-06-08T12:58:02Z</time>
      </trkpt>
      <trkpt lat="43.50795" lon="6.04694">
        <ele>330.600006</ele>
        <time>2011-06-08T12:58:11Z</time>
      </trkpt>
      <trkpt lat="43.50795" lon="6.04682">
        <ele>331.600006</ele>
        <time>2011-06-08T12:58:19Z</time>
      </trkpt>
      <trkpt lat="43.50793" lon="6.04671">
        <ele>331.899994</ele>
        <time>2011-06-08T12:58:27Z</time>
      </trkpt>
      <trkpt lat="43.50789" lon="6.04659">
        <ele>332.299988</ele>
        <time>2011-06-08T12:58:35Z</time>
      </trkpt>
      <trkpt lat="43.50786" lon="6.0465">
        <ele>331.600006</ele>
        <time>2011-06-08T12:58:42Z</time>
      </trkpt>
      <trkpt lat="43.50785" lon="6.04648">
        <ele>331.899994</ele>
        <time>2011-06-08T12:58:43Z</time>
      </trkpt>
      <trkpt lat="43.50779" lon="6.04628">
        <ele>332.899994</ele>
        <time>2011-06-08T12:58:58Z</time>
      </trkpt>
      <trkpt lat="43.50778" lon="6.04617">
        <ele>333.299988</ele>
        <time>2011-06-08T12:59:06Z</time>
      </trkpt>
      <trkpt lat="43.50777" lon="6.04604">
        <ele>332.700012</ele>
        <time>2011-06-08T12:59:14Z</time>
      </trkpt>
      <trkpt lat="43.50778" lon="6.04593">
        <ele>333.399994</ele>
        <time>2011-06-08T12:59:22Z</time>
      </trkpt>
      <trkpt lat="43.5078" lon="6.04581">
        <ele>334.600006</ele>
        <time>2011-06-08T12:59:30Z</time>
      </trkpt>
      <trkpt lat="43.50782" lon="6.04569">
        <ele>334.299988</ele>
        <time>2011-06-08T12:59:53Z</time>
      </trkpt>
      <trkpt lat="43.50782" lon="6.04568">
        <ele>334.100006</ele>
        <time>2011-06-08T12:59:54Z</time>
      </trkpt>
      <trkpt lat="43.50785" lon="6.04547">
        <ele>334.399994</ele>
        <time>2011-06-08T13:00:09Z</time>
      </trkpt>
      <trkpt lat="43.50785" lon="6.04535">
        <ele>335.200012</ele>
        <time>2011-06-08T13:00:17Z</time>
      </trkpt>
      <trkpt lat="43.50785" lon="6.04523">
        <ele>336.200012</ele>
        <time>2011-06-08T13:00:25Z</time>
      </trkpt>
      <trkpt lat="43.50788" lon="6.04512">
        <ele>336.299988</ele>
        <time>2011-06-08T13:00:34Z</time>
      </trkpt>
      <trkpt lat="43.50795" lon="6.04504">
        <ele>335.799988</ele>
        <time>2011-06-08T13:00:43Z</time>
      </trkpt>
      <trkpt lat="43.50803" lon="6.045">
        <ele>335.700012</ele>
        <time>2011-06-08T13:00:52Z</time>
      </trkpt>
      <trkpt lat="43.50812" lon="6.04499">
        <ele>335.5</ele>
        <time>2011-06-08T13:01:01Z</time>
      </trkpt>
      <trkpt lat="43.50813" lon="6.045">
        <ele>335.299988</ele>
        <time>2011-06-08T13:01:02Z</time>
      </trkpt>
      <trkpt lat="43.50827" lon="6.04499">
        <ele>335.5</ele>
        <time>2011-06-08T13:01:17Z</time>
      </trkpt>
      <trkpt lat="43.50831" lon="6.04489">
        <ele>335.799988</ele>
        <time>2011-06-08T13:01:26Z</time>
      </trkpt>
      <trkpt lat="43.50831" lon="6.04478">
        <ele>336.5</ele>
        <time>2011-06-08T13:01:34Z</time>
      </trkpt>
      <trkpt lat="43.5083" lon="6.04467">
        <ele>336.399994</ele>
        <time>2011-06-08T13:01:42Z</time>
      </trkpt>
      <trkpt lat="43.50828" lon="6.04455">
        <ele>336.799988</ele>
        <time>2011-06-08T13:01:52Z</time>
      </trkpt>
      <trkpt lat="43.50827" lon="6.04467">
        <ele>335.799988</ele>
        <time>2011-06-08T13:02:27Z</time>
      </trkpt>
      <trkpt lat="43.50827" lon="6.04468">
        <ele>336.100006</ele>
        <time>2011-06-08T13:02:28Z</time>
      </trkpt>
      <trkpt lat="43.5083" lon="6.0449">
        <ele>334.600006</ele>
        <time>2011-06-08T13:02:45Z</time>
      </trkpt>
      <trkpt lat="43.50833" lon="6.04501">
        <ele>334.399994</ele>
        <time>2011-06-08T13:02:55Z</time>
      </trkpt>
      <trkpt lat="43.50836" lon="6.04512">
        <ele>334.200012</ele>
        <time>2011-06-08T13:03:05Z</time>
      </trkpt>
      <trkpt lat="43.5084" lon="6.04523">
        <ele>334</ele>
        <time>2011-06-08T13:03:15Z</time>
      </trkpt>
      <trkpt lat="43.50843" lon="6.04534">
        <ele>333.600006</ele>
        <time>2011-06-08T13:03:24Z</time>
      </trkpt>
      <trkpt lat="43.50847" lon="6.04545">
        <ele>333.600006</ele>
        <time>2011-06-08T13:03:32Z</time>
      </trkpt>
      <trkpt lat="43.50847" lon="6.04546">
        <ele>333.700012</ele>
        <time>2011-06-08T13:03:33Z</time>
      </trkpt>
      <trkpt lat="43.50853" lon="6.04566">
        <ele>333.700012</ele>
        <time>2011-06-08T13:03:48Z</time>
      </trkpt>
      <trkpt lat="43.50857" lon="6.04577">
        <ele>333.5</ele>
        <time>2011-06-08T13:03:56Z</time>
      </trkpt>
      <trkpt lat="43.50861" lon="6.04588">
        <ele>332.799988</ele>
        <time>2011-06-08T13:04:04Z</time>
      </trkpt>
      <trkpt lat="43.50867" lon="6.04597">
        <ele>333.200012</ele>
        <time>2011-06-08T13:04:12Z</time>
      </trkpt>
      <trkpt lat="43.50873" lon="6.04605">
        <ele>332.299988</ele>
        <time>2011-06-08T13:04:19Z</time>
      </trkpt>
      <trkpt lat="43.50879" lon="6.04612">
        <ele>332.700012</ele>
        <time>2011-06-08T13:04:26Z</time>
      </trkpt>
      <trkpt lat="43.50886" lon="6.04618">
        <ele>333.100006</ele>
        <time>2011-06-08T13:04:33Z</time>
      </trkpt>
      <trkpt lat="43.50887" lon="6.04619">
        <ele>333.200012</ele>
        <time>2011-06-08T13:04:34Z</time>
      </trkpt>
      <trkpt lat="43.50896" lon="6.04636">
        <ele>333.299988</ele>
        <time>2011-06-08T13:04:49Z</time>
      </trkpt>
      <trkpt lat="43.50901" lon="6.04645">
        <ele>333.799988</ele>
        <time>2011-06-08T13:04:56Z</time>
      </trkpt>
      <trkpt lat="43.50909" lon="6.0465">
        <ele>333.799988</ele>
        <time>2011-06-08T13:05:05Z</time>
      </trkpt>
      <trkpt lat="43.50918" lon="6.04648">
        <ele>334.799988</ele>
        <time>2011-06-08T13:05:13Z</time>
      </trkpt>
      <trkpt lat="43.50926" lon="6.04644">
        <ele>336.100006</ele>
        <time>2011-06-08T13:05:21Z</time>
      </trkpt>
      <trkpt lat="43.50934" lon="6.04639">
        <ele>336</ele>
        <time>2011-06-08T13:05:29Z</time>
      </trkpt>
      <trkpt lat="43.50941" lon="6.04634">
        <ele>337.299988</ele>
        <time>2011-06-08T13:05:37Z</time>
      </trkpt>
      <trkpt lat="43.50942" lon="6.04633">
        <ele>336.899994</ele>
        <time>2011-06-08T13:05:38Z</time>
      </trkpt>
      <trkpt lat="43.50956" lon="6.04622">
        <ele>337.700012</ele>
        <time>2011-06-08T13:05:54Z</time>
      </trkpt>
      <trkpt lat="43.50963" lon="6.04616">
        <ele>337.799988</ele>
        <time>2011-06-08T13:06:02Z</time>
      </trkpt>
      <trkpt lat="43.5097" lon="6.0461">
        <ele>338.700012</ele>
        <time>2011-06-08T13:06:10Z</time>
      </trkpt>
      <trkpt lat="43.50978" lon="6.04603">
        <ele>337.799988</ele>
        <time>2011-06-08T13:06:18Z</time>
      </trkpt>
      <trkpt lat="43.50985" lon="6.04599">
        <ele>338.200012</ele>
        <time>2011-06-08T13:06:25Z</time>
      </trkpt>
      <trkpt lat="43.50993" lon="6.04596">
        <ele>338.299988</ele>
        <time>2011-06-08T13:06:32Z</time>
      </trkpt>
      <trkpt lat="43.51001" lon="6.04594">
        <ele>339.200012</ele>
        <time>2011-06-08T13:06:39Z</time>
      </trkpt>
      <trkpt lat="43.51002" lon="6.04593">
        <ele>339.299988</ele>
        <time>2011-06-08T13:06:40Z</time>
      </trkpt>
      <trkpt lat="43.51017" lon="6.04588">
        <ele>340.299988</ele>
        <time>2011-06-08T13:06:53Z</time>
      </trkpt>
      <trkpt lat="43.51025" lon="6.04586">
        <ele>339.200012</ele>
        <time>2011-06-08T13:07:00Z</time>
      </trkpt>
      <trkpt lat="43.51033" lon="6.04584">
        <ele>340.200012</ele>
        <time>2011-06-08T13:07:07Z</time>
      </trkpt>
      <trkpt lat="43.51041" lon="6.04582">
        <ele>340.200012</ele>
        <time>2011-06-08T13:07:14Z</time>
      </trkpt>
      <trkpt lat="43.51049" lon="6.04582">
        <ele>341.299988</ele>
        <time>2011-06-08T13:07:21Z</time>
      </trkpt>
      <trkpt lat="43.51057" lon="6.04583">
        <ele>341.700012</ele>
        <time>2011-06-08T13:07:28Z</time>
      </trkpt>
      <trkpt lat="43.51065" lon="6.04585">
        <ele>342</ele>
        <time>2011-06-08T13:07:35Z</time>
      </trkpt>
      <trkpt lat="43.51073" lon="6.04586">
        <ele>341.799988</ele>
        <time>2011-06-08T13:07:43Z</time>
      </trkpt>
      <trkpt lat="43.51075" lon="6.04586">
        <ele>342.200012</ele>
        <time>2011-06-08T13:07:44Z</time>
      </trkpt>
      <trkpt lat="43.51089" lon="6.04581">
        <ele>340.799988</ele>
        <time>2011-06-08T13:07:57Z</time>
      </trkpt>
      <trkpt lat="43.51097" lon="6.04576">
        <ele>341.799988</ele>
        <time>2011-06-08T13:08:05Z</time>
      </trkpt>
      <trkpt lat="43.51105" lon="6.04571">
        <ele>341.899994</ele>
        <time>2011-06-08T13:08:13Z</time>
      </trkpt>
      <trkpt lat="43.51112" lon="6.04567">
        <ele>341.299988</ele>
        <time>2011-06-08T13:08:22Z</time>
      </trkpt>
      <trkpt lat="43.51121" lon="6.0457">
        <ele>340.299988</ele>
        <time>2011-06-08T13:08:32Z</time>
      </trkpt>
      <trkpt lat="43.51128" lon="6.04578">
        <ele>339.5</ele>
        <time>2011-06-08T13:08:40Z</time>
      </trkpt>
      <trkpt lat="43.51134" lon="6.04586">
        <ele>339.399994</ele>
        <time>2011-06-08T13:08:48Z</time>
      </trkpt>
      <trkpt lat="43.51135" lon="6.04587">
        <ele>339.700012</ele>
        <time>2011-06-08T13:08:49Z</time>
      </trkpt>
      <trkpt lat="43.51145" lon="6.04602">
        <ele>338</ele>
        <time>2011-06-08T13:09:04Z</time>
      </trkpt>
      <trkpt lat="43.51151" lon="6.04611">
        <ele>336.899994</ele>
        <time>2011-06-08T13:09:12Z</time>
      </trkpt>
      <trkpt lat="43.51157" lon="6.0462">
        <ele>337.100006</ele>
        <time>2011-06-08T13:09:20Z</time>
      </trkpt>
      <trkpt lat="43.51163" lon="6.04628">
        <ele>335.299988</ele>
        <time>2011-06-08T13:09:28Z</time>
      </trkpt>
      <trkpt lat="43.51169" lon="6.04637">
        <ele>336.299988</ele>
        <time>2011-06-08T13:09:36Z</time>
      </trkpt>
      <trkpt lat="43.51175" lon="6.04645">
        <ele>336.5</ele>
        <time>2011-06-08T13:09:44Z</time>
      </trkpt>
      <trkpt lat="43.51181" lon="6.04653">
        <ele>337.100006</ele>
        <time>2011-06-08T13:09:51Z</time>
      </trkpt>
      <trkpt lat="43.51182" lon="6.04654">
        <ele>337.200012</ele>
        <time>2011-06-08T13:09:52Z</time>
      </trkpt>
      <trkpt lat="43.51196" lon="6.04664">
        <ele>337.799988</ele>
        <time>2011-06-08T13:10:06Z</time>
      </trkpt>
      <trkpt lat="43.51205" lon="6.04664">
        <ele>338.399994</ele>
        <time>2011-06-08T13:10:14Z</time>
      </trkpt>
      <trkpt lat="43.51213" lon="6.04664">
        <ele>338.100006</ele>
        <time>2011-06-08T13:10:22Z</time>
      </trkpt>
      <trkpt lat="43.51221" lon="6.04663">
        <ele>337.799988</ele>
        <time>2011-06-08T13:10:30Z</time>
      </trkpt>
      <trkpt lat="43.5123" lon="6.04663">
        <ele>337.700012</ele>
        <time>2011-06-08T13:10:38Z</time>
      </trkpt>
      <trkpt lat="43.51239" lon="6.04662">
        <ele>339.200012</ele>
        <time>2011-06-08T13:10:46Z</time>
      </trkpt>
      <trkpt lat="43.51246" lon="6.04662">
        <ele>339.200012</ele>
        <time>2011-06-08T13:10:53Z</time>
      </trkpt>
      <trkpt lat="43.51248" lon="6.04662">
        <ele>339.100006</ele>
        <time>2011-06-08T13:10:54Z</time>
      </trkpt>
      <trkpt lat="43.51263" lon="6.04661">
        <ele>340.700012</ele>
        <time>2011-06-08T13:11:07Z</time>
      </trkpt>
      <trkpt lat="43.51271" lon="6.0466">
        <ele>340.200012</ele>
        <time>2011-06-08T13:11:14Z</time>
      </trkpt>
      <trkpt lat="43.51279" lon="6.04661">
        <ele>340.100006</ele>
        <time>2011-06-08T13:11:22Z</time>
      </trkpt>
      <trkpt lat="43.51287" lon="6.04667">
        <ele>341</ele>
        <time>2011-06-08T13:11:30Z</time>
      </trkpt>
      <trkpt lat="43.51294" lon="6.04674">
        <ele>341.5</ele>
        <time>2011-06-08T13:11:38Z</time>
      </trkpt>
      <trkpt lat="43.51302" lon="6.04679">
        <ele>342</ele>
        <time>2011-06-08T13:11:47Z</time>
      </trkpt>
      <trkpt lat="43.5131" lon="6.04684">
        <ele>342</ele>
        <time>2011-06-08T13:11:55Z</time>
      </trkpt>
      <trkpt lat="43.51311" lon="6.04684">
        <ele>342.100006</ele>
        <time>2011-06-08T13:11:56Z</time>
      </trkpt>
      <trkpt lat="43.51324" lon="6.04696">
        <ele>344.100006</ele>
        <time>2011-06-08T13:12:12Z</time>
      </trkpt>
      <trkpt lat="43.5133" lon="6.04704">
        <ele>345.700012</ele>
        <time>2011-06-08T13:12:21Z</time>
      </trkpt>
      <trkpt lat="43.51334" lon="6.04715">
        <ele>346</ele>
        <time>2011-06-08T13:12:31Z</time>
      </trkpt>
      <trkpt lat="43.51336" lon="6.04726">
        <ele>348.5</ele>
        <time>2011-06-08T13:12:41Z</time>
      </trkpt>
      <trkpt lat="43.51334" lon="6.04737">
        <ele>349.200012</ele>
        <time>2011-06-08T13:12:52Z</time>
      </trkpt>
      <trkpt lat="43.51331" lon="6.04749">
        <ele>351.5</ele>
        <time>2011-06-08T13:13:02Z</time>
      </trkpt>
      <trkpt lat="43.5133" lon="6.0475">
        <ele>351.600006</ele>
        <time>2011-06-08T13:13:03Z</time>
      </trkpt>
      <trkpt lat="43.51327" lon="6.04771">
        <ele>354.100006</ele>
        <time>2011-06-08T13:13:21Z</time>
      </trkpt>
      <trkpt lat="43.51327" lon="6.04783">
        <ele>354.299988</ele>
        <time>2011-06-08T13:13:29Z</time>
      </trkpt>
      <trkpt lat="43.51326" lon="6.04795">
        <ele>356.600006</ele>
        <time>2011-06-08T13:13:38Z</time>
      </trkpt>
      <trkpt lat="43.51326" lon="6.04807">
        <ele>357.5</ele>
        <time>2011-06-08T13:13:47Z</time>
      </trkpt>
      <trkpt lat="43.51328" lon="6.04819">
        <ele>358.399994</ele>
        <time>2011-06-08T13:13:56Z</time>
      </trkpt>
      <trkpt lat="43.5133" lon="6.04831">
        <ele>359.700012</ele>
        <time>2011-06-08T13:14:05Z</time>
      </trkpt>
      <trkpt lat="43.5133" lon="6.04832">
        <ele>359.5</ele>
        <time>2011-06-08T13:14:06Z</time>
      </trkpt>
      <trkpt lat="43.51336" lon="6.04851">
        <ele>360.299988</ele>
        <time>2011-06-08T13:14:21Z</time>
      </trkpt>
      <trkpt lat="43.5134" lon="6.04861">
        <ele>360.700012</ele>
        <time>2011-06-08T13:14:30Z</time>
      </trkpt>
      <trkpt lat="43.51342" lon="6.04872">
        <ele>362.100006</ele>
        <time>2011-06-08T13:14:39Z</time>
      </trkpt>
      <trkpt lat="43.51345" lon="6.04884">
        <ele>362.600006</ele>
        <time>2011-06-08T13:14:49Z</time>
      </trkpt>
      <trkpt lat="43.51345" lon="6.04895">
        <ele>363.299988</ele>
        <time>2011-06-08T13:14:58Z</time>
      </trkpt>
      <trkpt lat="43.51347" lon="6.04906">
        <ele>363.5</ele>
        <time>2011-06-08T13:15:05Z</time>
      </trkpt>
      <trkpt lat="43.51349" lon="6.04918">
        <ele>362.899994</ele>
        <time>2011-06-08T13:15:13Z</time>
      </trkpt>
      <trkpt lat="43.51349" lon="6.04919">
        <ele>362.899994</ele>
        <time>2011-06-08T13:15:14Z</time>
      </trkpt>
      <trkpt lat="43.51358" lon="6.04936">
        <ele>362.200012</ele>
        <time>2011-06-08T13:15:39Z</time>
      </trkpt>
      <trkpt lat="43.51366" lon="6.04935">
        <ele>363</ele>
        <time>2011-06-08T13:15:50Z</time>
      </trkpt>
      <trkpt lat="43.51374" lon="6.04931">
        <ele>363.399994</ele>
        <time>2011-06-08T13:16:00Z</time>
      </trkpt>
      <trkpt lat="43.51382" lon="6.04925">
        <ele>363</ele>
        <time>2011-06-08T13:16:10Z</time>
      </trkpt>
      <trkpt lat="43.51389" lon="6.04922">
        <ele>363.299988</ele>
        <time>2011-06-08T13:16:19Z</time>
      </trkpt>
      <trkpt lat="43.51391" lon="6.04922">
        <ele>363.100006</ele>
        <time>2011-06-08T13:16:20Z</time>
      </trkpt>
      <trkpt lat="43.51406" lon="6.04919">
        <ele>364.299988</ele>
        <time>2011-06-08T13:16:38Z</time>
      </trkpt>
      <trkpt lat="43.51414" lon="6.04924">
        <ele>363.600006</ele>
        <time>2011-06-08T13:16:49Z</time>
      </trkpt>
      <trkpt lat="43.51421" lon="6.04929">
        <ele>363.700012</ele>
        <time>2011-06-08T13:16:57Z</time>
      </trkpt>
      <trkpt lat="43.51427" lon="6.04938">
        <ele>363.600006</ele>
        <time>2011-06-08T13:17:07Z</time>
      </trkpt>
      <trkpt lat="43.51435" lon="6.04943">
        <ele>364.5</ele>
        <time>2011-06-08T13:17:15Z</time>
      </trkpt>
      <trkpt lat="43.51443" lon="6.04948">
        <ele>363.200012</ele>
        <time>2011-06-08T13:17:24Z</time>
      </trkpt>
      <trkpt lat="43.51444" lon="6.04948">
        <ele>363.299988</ele>
        <time>2011-06-08T13:17:25Z</time>
      </trkpt>
      <trkpt lat="43.51458" lon="6.04958">
        <ele>361.899994</ele>
        <time>2011-06-08T13:17:40Z</time>
      </trkpt>
      <trkpt lat="43.51466" lon="6.0496">
        <ele>362.5</ele>
        <time>2011-06-08T13:17:48Z</time>
      </trkpt>
      <trkpt lat="43.51474" lon="6.04956">
        <ele>363.399994</ele>
        <time>2011-06-08T13:17:55Z</time>
      </trkpt>
      <trkpt lat="43.51479" lon="6.04946">
        <ele>363</ele>
        <time>2011-06-08T13:18:02Z</time>
      </trkpt>
      <trkpt lat="43.5148" lon="6.04934">
        <ele>363.100006</ele>
        <time>2011-06-08T13:18:11Z</time>
      </trkpt>
      <trkpt lat="43.51483" lon="6.04924">
        <ele>362.600006</ele>
        <time>2011-06-08T13:18:19Z</time>
      </trkpt>
      <trkpt lat="43.51488" lon="6.04915">
        <ele>360.899994</ele>
        <time>2011-06-08T13:18:29Z</time>
      </trkpt>
      <trkpt lat="43.51489" lon="6.04914">
        <ele>361.200012</ele>
        <time>2011-06-08T13:18:30Z</time>
      </trkpt>
      <trkpt lat="43.51499" lon="6.04896">
        <ele>360.100006</ele>
        <time>2011-06-08T13:18:46Z</time>
      </trkpt>
      <trkpt lat="43.51503" lon="6.04886">
        <ele>359.799988</ele>
        <time>2011-06-08T13:18:54Z</time>
      </trkpt>
      <trkpt lat="43.51506" lon="6.04875">
        <ele>358.200012</ele>
        <time>2011-06-08T13:19:02Z</time>
      </trkpt>
      <trkpt lat="43.5151" lon="6.04864">
        <ele>357.100006</ele>
        <time>2011-06-08T13:19:11Z</time>
      </trkpt>
      <trkpt lat="43.51512" lon="6.04852">
        <ele>356.299988</ele>
        <time>2011-06-08T13:19:20Z</time>
      </trkpt>
      <trkpt lat="43.51511" lon="6.0484">
        <ele>355.700012</ele>
        <time>2011-06-08T13:19:28Z</time>
      </trkpt>
      <trkpt lat="43.51509" lon="6.04829">
        <ele>356</ele>
        <time>2011-06-08T13:19:46Z</time>
      </trkpt>
      <trkpt lat="43.51508" lon="6.04828">
        <ele>355.200012</ele>
        <time>2011-06-08T13:19:47Z</time>
      </trkpt>
      <trkpt lat="43.51503" lon="6.04806">
        <ele>354.700012</ele>
        <time>2011-06-08T13:20:06Z</time>
      </trkpt>
      <trkpt lat="43.51499" lon="6.04795">
        <ele>354.100006</ele>
        <time>2011-06-08T13:20:15Z</time>
      </trkpt>
      <trkpt lat="43.51497" lon="6.04783">
        <ele>352.899994</ele>
        <time>2011-06-08T13:20:24Z</time>
      </trkpt>
      <trkpt lat="43.515" lon="6.04772">
        <ele>353.299988</ele>
        <time>2011-06-08T13:20:33Z</time>
      </trkpt>
      <trkpt lat="43.51507" lon="6.04765">
        <ele>354.299988</ele>
        <time>2011-06-08T13:20:43Z</time>
      </trkpt>
      <trkpt lat="43.51514" lon="6.04757">
        <ele>354.700012</ele>
        <time>2011-06-08T13:20:54Z</time>
      </trkpt>
      <trkpt lat="43.51514" lon="6.04756">
        <ele>354</ele>
        <time>2011-06-08T13:20:55Z</time>
      </trkpt>
      <trkpt lat="43.51523" lon="6.0474">
        <ele>355.700012</ele>
        <time>2011-06-08T13:21:10Z</time>
      </trkpt>
      <trkpt lat="43.5153" lon="6.04731">
        <ele>356.799988</ele>
        <time>2011-06-08T13:21:19Z</time>
      </trkpt>
      <trkpt lat="43.51537" lon="6.04726">
        <ele>356.799988</ele>
        <time>2011-06-08T13:21:28Z</time>
      </trkpt>
      <trkpt lat="43.51544" lon="6.04721">
        <ele>356.5</ele>
        <time>2011-06-08T13:21:37Z</time>
      </trkpt>
      <trkpt lat="43.51552" lon="6.04716">
        <ele>357</ele>
        <time>2011-06-08T13:21:46Z</time>
      </trkpt>
      <trkpt lat="43.5156" lon="6.0471">
        <ele>358.200012</ele>
        <time>2011-06-08T13:21:54Z</time>
      </trkpt>
      <trkpt lat="43.51568" lon="6.04706">
        <ele>358.700012</ele>
        <time>2011-06-08T13:22:02Z</time>
      </trkpt>
      <trkpt lat="43.51569" lon="6.04706">
        <ele>358</ele>
        <time>2011-06-08T13:22:03Z</time>
      </trkpt>
      <trkpt lat="43.51584" lon="6.04699">
        <ele>359.399994</ele>
        <time>2011-06-08T13:22:18Z</time>
      </trkpt>
      <trkpt lat="43.51592" lon="6.04694">
        <ele>359.5</ele>
        <time>2011-06-08T13:22:26Z</time>
      </trkpt>
      <trkpt lat="43.516" lon="6.0469">
        <ele>360</ele>
        <time>2011-06-08T13:22:33Z</time>
      </trkpt>
      <trkpt lat="43.51607" lon="6.04685">
        <ele>360.200012</ele>
        <time>2011-06-08T13:22:41Z</time>
      </trkpt>
      <trkpt lat="43.51616" lon="6.04681">
        <ele>361.200012</ele>
        <time>2011-06-08T13:22:49Z</time>
      </trkpt>
      <trkpt lat="43.51624" lon="6.04678">
        <ele>361.200012</ele>
        <time>2011-06-08T13:22:57Z</time>
      </trkpt>
      <trkpt lat="43.51632" lon="6.04674">
        <ele>361.899994</ele>
        <time>2011-06-08T13:23:06Z</time>
      </trkpt>
      <trkpt lat="43.51633" lon="6.04673">
        <ele>361.700012</ele>
        <time>2011-06-08T13:23:07Z</time>
      </trkpt>
      <trkpt lat="43.51646" lon="6.04661">
        <ele>363.100006</ele>
        <time>2011-06-08T13:23:22Z</time>
      </trkpt>
      <trkpt lat="43.51653" lon="6.04654">
        <ele>362.100006</ele>
        <time>2011-06-08T13:23:30Z</time>
      </trkpt>
      <trkpt lat="43.5166" lon="6.04648">
        <ele>363.200012</ele>
        <time>2011-06-08T13:23:38Z</time>
      </trkpt>
      <trkpt lat="43.51667" lon="6.04641">
        <ele>363.700012</ele>
        <time>2011-06-08T13:23:46Z</time>
      </trkpt>
      <trkpt lat="43.51673" lon="6.04633">
        <ele>364.399994</ele>
        <time>2011-06-08T13:23:54Z</time>
      </trkpt>
      <trkpt lat="43.51677" lon="6.04623">
        <ele>365</ele>
        <time>2011-06-08T13:24:02Z</time>
      </trkpt>
      <trkpt lat="43.51682" lon="6.04613">
        <ele>364.600006</ele>
        <time>2011-06-08T13:24:09Z</time>
      </trkpt>
      <trkpt lat="43.51682" lon="6.04612">
        <ele>364.799988</ele>
        <time>2011-06-08T13:24:10Z</time>
      </trkpt>
      <trkpt lat="43.51691" lon="6.04594">
        <ele>366</ele>
        <time>2011-06-08T13:24:24Z</time>
      </trkpt>
      <trkpt lat="43.51696" lon="6.04585">
        <ele>366.5</ele>
        <time>2011-06-08T13:24:32Z</time>
      </trkpt>
      <trkpt lat="43.51703" lon="6.04577">
        <ele>365.799988</ele>
        <time>2011-06-08T13:24:41Z</time>
      </trkpt>
      <trkpt lat="43.51707" lon="6.04568">
        <ele>367.200012</ele>
        <time>2011-06-08T13:24:48Z</time>
      </trkpt>
      <trkpt lat="43.51712" lon="6.04558">
        <ele>367.700012</ele>
        <time>2011-06-08T13:24:55Z</time>
      </trkpt>
      <trkpt lat="43.51715" lon="6.04547">
        <ele>367.399994</ele>
        <time>2011-06-08T13:25:02Z</time>
      </trkpt>
      <trkpt lat="43.51718" lon="6.04537">
        <ele>368.5</ele>
        <time>2011-06-08T13:25:09Z</time>
      </trkpt>
      <trkpt lat="43.51722" lon="6.04527">
        <ele>368</ele>
        <time>2011-06-08T13:25:16Z</time>
      </trkpt>
      <trkpt lat="43.51723" lon="6.04526">
        <ele>368</ele>
        <time>2011-06-08T13:25:17Z</time>
      </trkpt>
      <trkpt lat="43.51726" lon="6.04505">
        <ele>368</ele>
        <time>2011-06-08T13:25:31Z</time>
      </trkpt>
      <trkpt lat="43.51727" lon="6.04494">
        <ele>368.700012</ele>
        <time>2011-06-08T13:25:38Z</time>
      </trkpt>
      <trkpt lat="43.51726" lon="6.04483">
        <ele>368.799988</ele>
        <time>2011-06-08T13:25:45Z</time>
      </trkpt>
      <trkpt lat="43.51728" lon="6.04471">
        <ele>369.299988</ele>
        <time>2011-06-08T13:25:54Z</time>
      </trkpt>
      <trkpt lat="43.51736" lon="6.04469">
        <ele>368.600006</ele>
        <time>2011-06-08T13:26:26Z</time>
      </trkpt>
      <trkpt lat="43.51737" lon="6.04469">
        <ele>368.600006</ele>
        <time>2011-06-08T13:26:27Z</time>
      </trkpt>
      <trkpt lat="43.51753" lon="6.04474">
        <ele>368.799988</ele>
        <time>2011-06-08T13:26:44Z</time>
      </trkpt>
      <trkpt lat="43.51762" lon="6.04474">
        <ele>370.200012</ele>
        <time>2011-06-08T13:26:54Z</time>
      </trkpt>
      <trkpt lat="43.51769" lon="6.04478">
        <ele>370.700012</ele>
        <time>2011-06-08T13:27:03Z</time>
      </trkpt>
      <trkpt lat="43.51777" lon="6.04482">
        <ele>369.700012</ele>
        <time>2011-06-08T13:27:11Z</time>
      </trkpt>
      <trkpt lat="43.51786" lon="6.04485">
        <ele>370.399994</ele>
        <time>2011-06-08T13:27:19Z</time>
      </trkpt>
      <trkpt lat="43.51794" lon="6.0449">
        <ele>371.299988</ele>
        <time>2011-06-08T13:27:28Z</time>
      </trkpt>
      <trkpt lat="43.51795" lon="6.0449">
        <ele>371.399994</ele>
        <time>2011-06-08T13:27:29Z</time>
      </trkpt>
      <trkpt lat="43.5181" lon="6.04496">
        <ele>372.399994</ele>
        <time>2011-06-08T13:27:46Z</time>
      </trkpt>
      <trkpt lat="43.51818" lon="6.04498">
        <ele>371.899994</ele>
        <time>2011-06-08T13:27:55Z</time>
      </trkpt>
      <trkpt lat="43.51827" lon="6.045">
        <ele>373.700012</ele>
        <time>2011-06-08T13:28:06Z</time>
      </trkpt>
      <trkpt lat="43.51835" lon="6.04504">
        <ele>374.899994</ele>
        <time>2011-06-08T13:28:14Z</time>
      </trkpt>
      <trkpt lat="43.51842" lon="6.04508">
        <ele>375.700012</ele>
        <time>2011-06-08T13:28:21Z</time>
      </trkpt>
      <trkpt lat="43.5185" lon="6.04511">
        <ele>375.299988</ele>
        <time>2011-06-08T13:28:30Z</time>
      </trkpt>
      <trkpt lat="43.51851" lon="6.04511">
        <ele>375.600006</ele>
        <time>2011-06-08T13:28:31Z</time>
      </trkpt>
      <trkpt lat="43.51866" lon="6.04512">
        <ele>376.799988</ele>
        <time>2011-06-08T13:28:48Z</time>
      </trkpt>
      <trkpt lat="43.51875" lon="6.04514">
        <ele>377.200012</ele>
        <time>2011-06-08T13:28:56Z</time>
      </trkpt>
      <trkpt lat="43.51883" lon="6.04514">
        <ele>377</ele>
        <time>2011-06-08T13:29:05Z</time>
      </trkpt>
      <trkpt lat="43.51892" lon="6.04515">
        <ele>377.899994</ele>
        <time>2011-06-08T13:29:14Z</time>
      </trkpt>
      <trkpt lat="43.51901" lon="6.04514">
        <ele>378.799988</ele>
        <time>2011-06-08T13:29:23Z</time>
      </trkpt>
      <trkpt lat="43.51909" lon="6.04515">
        <ele>379.100006</ele>
        <time>2011-06-08T13:29:32Z</time>
      </trkpt>
      <trkpt lat="43.5191" lon="6.04515">
        <ele>379.200012</ele>
        <time>2011-06-08T13:29:33Z</time>
      </trkpt>
      <trkpt lat="43.51926" lon="6.0451">
        <ele>381.799988</ele>
        <time>2011-06-08T13:29:53Z</time>
      </trkpt>
      <trkpt lat="43.51934" lon="6.04508">
        <ele>382.399994</ele>
        <time>2011-06-08T13:30:02Z</time>
      </trkpt>
      <trkpt lat="43.51943" lon="6.04507">
        <ele>383.100006</ele>
        <time>2011-06-08T13:30:12Z</time>
      </trkpt>
      <trkpt lat="43.51951" lon="6.04507">
        <ele>384.600006</ele>
        <time>2011-06-08T13:30:22Z</time>
      </trkpt>
      <trkpt lat="43.5196" lon="6.04507">
        <ele>385.799988</ele>
        <time>2011-06-08T13:30:32Z</time>
      </trkpt>
      <trkpt lat="43.51968" lon="6.04506">
        <ele>386.700012</ele>
        <time>2011-06-08T13:30:41Z</time>
      </trkpt>
      <trkpt lat="43.51969" lon="6.04506">
        <ele>386.899994</ele>
        <time>2011-06-08T13:30:42Z</time>
      </trkpt>
      <trkpt lat="43.51986" lon="6.04504">
        <ele>388.399994</ele>
        <time>2011-06-08T13:31:00Z</time>
      </trkpt>
      <trkpt lat="43.51994" lon="6.04504">
        <ele>389.5</ele>
        <time>2011-06-08T13:31:10Z</time>
      </trkpt>
      <trkpt lat="43.52003" lon="6.04505">
        <ele>390.600006</ele>
        <time>2011-06-08T13:31:20Z</time>
      </trkpt>
      <trkpt lat="43.52012" lon="6.04507">
        <ele>391.600006</ele>
        <time>2011-06-08T13:31:29Z</time>
      </trkpt>
      <trkpt lat="43.5202" lon="6.0451">
        <ele>392.100006</ele>
        <time>2011-06-08T13:31:41Z</time>
      </trkpt>
      <trkpt lat="43.52028" lon="6.04512">
        <ele>393.399994</ele>
        <time>2011-06-08T13:31:51Z</time>
      </trkpt>
      <trkpt lat="43.52029" lon="6.04512">
        <ele>393.600006</ele>
        <time>2011-06-08T13:31:52Z</time>
      </trkpt>
      <trkpt lat="43.52045" lon="6.04507">
        <ele>394.700012</ele>
        <time>2011-06-08T13:32:09Z</time>
      </trkpt>
      <trkpt lat="43.5205" lon="6.04497">
        <ele>393.700012</ele>
        <time>2011-06-08T13:32:21Z</time>
      </trkpt>
      <trkpt lat="43.52058" lon="6.04494">
        <ele>394</ele>
        <time>2011-06-08T13:33:16Z</time>
      </trkpt>
      <trkpt lat="43.52058" lon="6.04494">
        <ele>394</ele>
        <time>2011-06-08T13:33:17Z</time>
      </trkpt>
      <trkpt lat="43.5205" lon="6.045">
        <ele>394.600006</ele>
        <time>2011-06-08T13:39:25Z</time>
      </trkpt>
      <trkpt lat="43.52043" lon="6.04519">
        <ele>395.299988</ele>
        <time>2011-06-08T13:39:56Z</time>
      </trkpt>
      <trkpt lat="43.52041" lon="6.04531">
        <ele>395.799988</ele>
        <time>2011-06-08T13:40:08Z</time>
      </trkpt>
      <trkpt lat="43.5204" lon="6.04543">
        <ele>396</ele>
        <time>2011-06-08T13:40:18Z</time>
      </trkpt>
      <trkpt lat="43.52037" lon="6.04553">
        <ele>396.799988</ele>
        <time>2011-06-08T13:40:28Z</time>
      </trkpt>
      <trkpt lat="43.52036" lon="6.04554">
        <ele>396.899994</ele>
        <time>2011-06-08T13:40:29Z</time>
      </trkpt>
      <trkpt lat="43.52027" lon="6.04572">
        <ele>396.799988</ele>
        <time>2011-06-08T13:40:45Z</time>
      </trkpt>
      <trkpt lat="43.52024" lon="6.04582">
        <ele>397.299988</ele>
        <time>2011-06-08T13:40:53Z</time>
      </trkpt>
      <trkpt lat="43.52021" lon="6.04594">
        <ele>398.5</ele>
        <time>2011-06-08T13:41:03Z</time>
      </trkpt>
      <trkpt lat="43.52019" lon="6.04605">
        <ele>398</ele>
        <time>2011-06-08T13:41:12Z</time>
      </trkpt>
      <trkpt lat="43.52018" lon="6.04617">
        <ele>399.100006</ele>
        <time>2011-06-08T13:41:21Z</time>
      </trkpt>
      <trkpt lat="43.52013" lon="6.04628">
        <ele>398.700012</ele>
        <time>2011-06-08T13:41:31Z</time>
      </trkpt>
      <trkpt lat="43.52013" lon="6.04629">
        <ele>398.799988</ele>
        <time>2011-06-08T13:41:32Z</time>
      </trkpt>
      <trkpt lat="43.52005" lon="6.04649">
        <ele>399</ele>
        <time>2011-06-08T13:41:52Z</time>
      </trkpt>
      <trkpt lat="43.52" lon="6.04658">
        <ele>399.700012</ele>
        <time>2011-06-08T13:42:01Z</time>
      </trkpt>
      <trkpt lat="43.51995" lon="6.04667">
        <ele>399.600006</ele>
        <time>2011-06-08T13:42:09Z</time>
      </trkpt>
      <trkpt lat="43.51991" lon="6.04677">
        <ele>399.5</ele>
        <time>2011-06-08T13:42:18Z</time>
      </trkpt>
      <trkpt lat="43.5199" lon="6.04688">
        <ele>400</ele>
        <time>2011-06-08T13:42:27Z</time>
      </trkpt>
      <trkpt lat="43.51986" lon="6.04699">
        <ele>399.399994</ele>
        <time>2011-06-08T13:42:40Z</time>
      </trkpt>
      <trkpt lat="43.51985" lon="6.047">
        <ele>399.200012</ele>
        <time>2011-06-08T13:42:41Z</time>
      </trkpt>
      <trkpt lat="43.51974" lon="6.04716">
        <ele>399.899994</ele>
        <time>2011-06-08T13:43:00Z</time>
      </trkpt>
      <trkpt lat="43.51969" lon="6.04726">
        <ele>400.5</ele>
        <time>2011-06-08T13:43:10Z</time>
      </trkpt>
      <trkpt lat="43.51966" lon="6.04737">
        <ele>401</ele>
        <time>2011-06-08T13:43:20Z</time>
      </trkpt>
      <trkpt lat="43.51964" lon="6.04749">
        <ele>401.600006</ele>
        <time>2011-06-08T13:43:30Z</time>
      </trkpt>
      <trkpt lat="43.51961" lon="6.0476">
        <ele>402.399994</ele>
        <time>2011-06-08T13:43:40Z</time>
      </trkpt>
      <trkpt lat="43.51957" lon="6.0477">
        <ele>402.200012</ele>
        <time>2011-06-08T13:43:49Z</time>
      </trkpt>
      <trkpt lat="43.51957" lon="6.04771">
        <ele>402.399994</ele>
        <time>2011-06-08T13:43:50Z</time>
      </trkpt>
      <trkpt lat="43.51949" lon="6.0479">
        <ele>401.299988</ele>
        <time>2011-06-08T13:44:06Z</time>
      </trkpt>
      <trkpt lat="43.51945" lon="6.048">
        <ele>401.100006</ele>
        <time>2011-06-08T13:44:16Z</time>
      </trkpt>
      <trkpt lat="43.51944" lon="6.04812">
        <ele>401</ele>
        <time>2011-06-08T13:44:27Z</time>
      </trkpt>
      <trkpt lat="43.51938" lon="6.04821">
        <ele>399.700012</ele>
        <time>2011-06-08T13:44:39Z</time>
      </trkpt>
      <trkpt lat="43.51934" lon="6.04832">
        <ele>398.5</ele>
        <time>2011-06-08T13:44:50Z</time>
      </trkpt>
      <trkpt lat="43.51934" lon="6.04833">
        <ele>398.700012</ele>
        <time>2011-06-08T13:44:51Z</time>
      </trkpt>
      <trkpt lat="43.51927" lon="6.04851">
        <ele>399.100006</ele>
        <time>2011-06-08T13:45:06Z</time>
      </trkpt>
      <trkpt lat="43.51921" lon="6.0486">
        <ele>399.799988</ele>
        <time>2011-06-08T13:45:14Z</time>
      </trkpt>
      <trkpt lat="43.51915" lon="6.04868">
        <ele>398.899994</ele>
        <time>2011-06-08T13:45:23Z</time>
      </trkpt>
      <trkpt lat="43.51909" lon="6.04875">
        <ele>399.100006</ele>
        <time>2011-06-08T13:45:32Z</time>
      </trkpt>
      <trkpt lat="43.51903" lon="6.04883">
        <ele>398.899994</ele>
        <time>2011-06-08T13:45:41Z</time>
      </trkpt>
      <trkpt lat="43.51897" lon="6.04892">
        <ele>397.799988</ele>
        <time>2011-06-08T13:45:51Z</time>
      </trkpt>
      <trkpt lat="43.51893" lon="6.04903">
        <ele>398.299988</ele>
        <time>2011-06-08T13:46:00Z</time>
      </trkpt>
      <trkpt lat="43.51893" lon="6.04904">
        <ele>398.399994</ele>
        <time>2011-06-08T13:46:01Z</time>
      </trkpt>
      <trkpt lat="43.51884" lon="6.04923">
        <ele>398.5</ele>
        <time>2011-06-08T13:46:20Z</time>
      </trkpt>
      <trkpt lat="43.51879" lon="6.04932">
        <ele>398.399994</ele>
        <time>2011-06-08T13:46:31Z</time>
      </trkpt>
      <trkpt lat="43.51874" lon="6.04942">
        <ele>398.200012</ele>
        <time>2011-06-08T13:46:41Z</time>
      </trkpt>
      <trkpt lat="43.5187" lon="6.04953">
        <ele>397.899994</ele>
        <time>2011-06-08T13:46:51Z</time>
      </trkpt>
      <trkpt lat="43.51865" lon="6.04962">
        <ele>398</ele>
        <time>2011-06-08T13:47:01Z</time>
      </trkpt>
      <trkpt lat="43.51864" lon="6.04963">
        <ele>398</ele>
        <time>2011-06-08T13:47:02Z</time>
      </trkpt>
      <trkpt lat="43.51859" lon="6.04984">
        <ele>397.799988</ele>
        <time>2011-06-08T13:47:19Z</time>
      </trkpt>
      <trkpt lat="43.51857" lon="6.04994">
        <ele>398.399994</ele>
        <time>2011-06-08T13:47:27Z</time>
      </trkpt>
      <trkpt lat="43.51856" lon="6.05007">
        <ele>399.200012</ele>
        <time>2011-06-08T13:47:37Z</time>
      </trkpt>
      <trkpt lat="43.51854" lon="6.05017">
        <ele>399.600006</ele>
        <time>2011-06-08T13:47:46Z</time>
      </trkpt>
      <trkpt lat="43.51856" lon="6.05028">
        <ele>399.899994</ele>
        <time>2011-06-08T13:47:54Z</time>
      </trkpt>
      <trkpt lat="43.51858" lon="6.05039">
        <ele>400.100006</ele>
        <time>2011-06-08T13:48:03Z</time>
      </trkpt>
      <trkpt lat="43.51858" lon="6.05041">
        <ele>400.399994</ele>
        <time>2011-06-08T13:48:04Z</time>
      </trkpt>
      <trkpt lat="43.51862" lon="6.05063">
        <ele>401.600006</ele>
        <time>2011-06-08T13:48:23Z</time>
      </trkpt>
      <trkpt lat="43.51862" lon="6.05075">
        <ele>401.100006</ele>
        <time>2011-06-08T13:48:34Z</time>
      </trkpt>
      <trkpt lat="43.51864" lon="6.05087">
        <ele>401.299988</ele>
        <time>2011-06-08T13:49:00Z</time>
      </trkpt>
      <trkpt lat="43.51864" lon="6.05099">
        <ele>401.899994</ele>
        <time>2011-06-08T13:49:14Z</time>
      </trkpt>
      <trkpt lat="43.51864" lon="6.051">
        <ele>401.899994</ele>
        <time>2011-06-08T13:49:15Z</time>
      </trkpt>
      <trkpt lat="43.51855" lon="6.0512">
        <ele>402.5</ele>
        <time>2011-06-08T13:49:37Z</time>
      </trkpt>
      <trkpt lat="43.51849" lon="6.05129">
        <ele>404.100006</ele>
        <time>2011-06-08T13:49:49Z</time>
      </trkpt>
      <trkpt lat="43.51847" lon="6.0514">
        <ele>406.299988</ele>
        <time>2011-06-08T13:50:01Z</time>
      </trkpt>
      <trkpt lat="43.51846" lon="6.05152">
        <ele>407.600006</ele>
        <time>2011-06-08T13:50:14Z</time>
      </trkpt>
      <trkpt lat="43.51848" lon="6.05163">
        <ele>409.600006</ele>
        <time>2011-06-08T13:50:26Z</time>
      </trkpt>
      <trkpt lat="43.51848" lon="6.05164">
        <ele>409.899994</ele>
        <time>2011-06-08T13:50:27Z</time>
      </trkpt>
      <trkpt lat="43.51844" lon="6.05186">
        <ele>412.5</ele>
        <time>2011-06-08T13:50:49Z</time>
      </trkpt>
      <trkpt lat="43.51845" lon="6.05198">
        <ele>414.100006</ele>
        <time>2011-06-08T13:51:01Z</time>
      </trkpt>
      <trkpt lat="43.51846" lon="6.0521">
        <ele>414.600006</ele>
        <time>2011-06-08T13:51:12Z</time>
      </trkpt>
      <trkpt lat="43.5185" lon="6.05221">
        <ele>416.700012</ele>
        <time>2011-06-08T13:51:24Z</time>
      </trkpt>
      <trkpt lat="43.51853" lon="6.05232">
        <ele>418.200012</ele>
        <time>2011-06-08T13:51:39Z</time>
      </trkpt>
      <trkpt lat="43.51853" lon="6.05233">
        <ele>418.399994</ele>
        <time>2011-06-08T13:51:40Z</time>
      </trkpt>
      <trkpt lat="43.51847" lon="6.05254">
        <ele>421.200012</ele>
        <time>2011-06-08T13:52:06Z</time>
      </trkpt>
      <trkpt lat="43.51842" lon="6.05264">
        <ele>421.700012</ele>
        <time>2011-06-08T13:52:16Z</time>
      </trkpt>
      <trkpt lat="43.51837" lon="6.05274">
        <ele>422.200012</ele>
        <time>2011-06-08T13:52:27Z</time>
      </trkpt>
      <trkpt lat="43.5183" lon="6.05282">
        <ele>422.700012</ele>
        <time>2011-06-08T13:52:43Z</time>
      </trkpt>
      <trkpt lat="43.5183" lon="6.05283">
        <ele>422.799988</ele>
        <time>2011-06-08T13:52:44Z</time>
      </trkpt>
      <trkpt lat="43.51814" lon="6.05291">
        <ele>421.600006</ele>
        <time>2011-06-08T13:53:04Z</time>
      </trkpt>
      <trkpt lat="43.51806" lon="6.05296">
        <ele>421.299988</ele>
        <time>2011-06-08T13:53:14Z</time>
      </trkpt>
      <trkpt lat="43.51799" lon="6.053">
        <ele>422</ele>
        <time>2011-06-08T13:53:23Z</time>
      </trkpt>
      <trkpt lat="43.5179" lon="6.05304">
        <ele>420.700012</ele>
        <time>2011-06-08T13:53:33Z</time>
      </trkpt>
      <trkpt lat="43.51782" lon="6.05306">
        <ele>419.700012</ele>
        <time>2011-06-08T13:53:45Z</time>
      </trkpt>
      <trkpt lat="43.51781" lon="6.05306">
        <ele>419.799988</ele>
        <time>2011-06-08T13:53:46Z</time>
      </trkpt>
      <trkpt lat="43.51766" lon="6.05313">
        <ele>418.100006</ele>
        <time>2011-06-08T13:54:02Z</time>
      </trkpt>
      <trkpt lat="43.51758" lon="6.05318">
        <ele>417.5</ele>
        <time>2011-06-08T13:54:11Z</time>
      </trkpt>
      <trkpt lat="43.51751" lon="6.05323">
        <ele>416.299988</ele>
        <time>2011-06-08T13:54:20Z</time>
      </trkpt>
      <trkpt lat="43.51744" lon="6.05327">
        <ele>415.399994</ele>
        <time>2011-06-08T13:54:29Z</time>
      </trkpt>
      <trkpt lat="43.51737" lon="6.05335">
        <ele>415.5</ele>
        <time>2011-06-08T13:54:41Z</time>
      </trkpt>
      <trkpt lat="43.51736" lon="6.05347">
        <ele>415.200012</ele>
        <time>2011-06-08T13:55:04Z</time>
      </trkpt>
      <trkpt lat="43.51735" lon="6.05348">
        <ele>414.899994</ele>
        <time>2011-06-08T13:55:05Z</time>
      </trkpt>
      <trkpt lat="43.51726" lon="6.05329">
        <ele>414.799988</ele>
        <time>2011-06-08T13:56:05Z</time>
      </trkpt>
      <trkpt lat="43.51725" lon="6.05329">
        <ele>414.600006</ele>
        <time>2011-06-08T13:56:06Z</time>
      </trkpt>
      <trkpt lat="43.51709" lon="6.05331">
        <ele>413.200012</ele>
        <time>2011-06-08T13:56:25Z</time>
      </trkpt>
      <trkpt lat="43.51701" lon="6.05334">
        <ele>412.200012</ele>
        <time>2011-06-08T13:56:36Z</time>
      </trkpt>
      <trkpt lat="43.51692" lon="6.05338">
        <ele>410.899994</ele>
        <time>2011-06-08T13:56:47Z</time>
      </trkpt>
      <trkpt lat="43.51684" lon="6.0534">
        <ele>410.399994</ele>
        <time>2011-06-08T13:56:58Z</time>
      </trkpt>
      <trkpt lat="43.51675" lon="6.0534">
        <ele>408.100006</ele>
        <time>2011-06-08T13:57:11Z</time>
      </trkpt>
      <trkpt lat="43.51675" lon="6.05339">
        <ele>408</ele>
        <time>2011-06-08T13:57:12Z</time>
      </trkpt>
      <trkpt lat="43.51659" lon="6.05333">
        <ele>404.100006</ele>
        <time>2011-06-08T13:57:35Z</time>
      </trkpt>
      <trkpt lat="43.51651" lon="6.05328">
        <ele>401.600006</ele>
        <time>2011-06-08T13:57:48Z</time>
      </trkpt>
      <trkpt lat="43.51643" lon="6.05323">
        <ele>399.700012</ele>
        <time>2011-06-08T13:58:00Z</time>
      </trkpt>
      <trkpt lat="43.51635" lon="6.05319">
        <ele>397.700012</ele>
        <time>2011-06-08T13:58:10Z</time>
      </trkpt>
      <trkpt lat="43.51627" lon="6.05315">
        <ele>396.299988</ele>
        <time>2011-06-08T13:58:22Z</time>
      </trkpt>
      <trkpt lat="43.51626" lon="6.05315">
        <ele>395.799988</ele>
        <time>2011-06-08T13:58:23Z</time>
      </trkpt>
      <trkpt lat="43.5161" lon="6.0531">
        <ele>392.700012</ele>
        <time>2011-06-08T13:58:45Z</time>
      </trkpt>
      <trkpt lat="43.51602" lon="6.05306">
        <ele>391.399994</ele>
        <time>2011-06-08T13:58:56Z</time>
      </trkpt>
      <trkpt lat="43.51593" lon="6.05306">
        <ele>388.700012</ele>
        <time>2011-06-08T13:59:06Z</time>
      </trkpt>
      <trkpt lat="43.51585" lon="6.05303">
        <ele>387.700012</ele>
        <time>2011-06-08T13:59:24Z</time>
      </trkpt>
      <trkpt lat="43.51584" lon="6.05303">
        <ele>387.799988</ele>
        <time>2011-06-08T13:59:25Z</time>
      </trkpt>
      <trkpt lat="43.51567" lon="6.05306">
        <ele>386.100006</ele>
        <time>2011-06-08T13:59:52Z</time>
      </trkpt>
      <trkpt lat="43.51559" lon="6.05308">
        <ele>385.200012</ele>
        <time>2011-06-08T14:00:06Z</time>
      </trkpt>
      <trkpt lat="43.5155" lon="6.0531">
        <ele>383.5</ele>
        <time>2011-06-08T14:00:19Z</time>
      </trkpt>
      <trkpt lat="43.51542" lon="6.0531">
        <ele>379.600006</ele>
        <time>2011-06-08T14:00:30Z</time>
      </trkpt>
      <trkpt lat="43.51541" lon="6.0531">
        <ele>376.700012</ele>
        <time>2011-06-08T14:00:31Z</time>
      </trkpt>
      <trkpt lat="43.51526" lon="6.05316">
        <ele>366.399994</ele>
        <time>2011-06-08T14:00:46Z</time>
      </trkpt>
      <trkpt lat="43.51518" lon="6.05319">
        <ele>366.399994</ele>
        <time>2011-06-08T14:00:55Z</time>
      </trkpt>
      <trkpt lat="43.51509" lon="6.05319">
        <ele>364.600006</ele>
        <time>2011-06-08T14:01:05Z</time>
      </trkpt>
      <trkpt lat="43.51501" lon="6.0532">
        <ele>364.899994</ele>
        <time>2011-06-08T14:01:13Z</time>
      </trkpt>
      <trkpt lat="43.51492" lon="6.05321">
        <ele>364</ele>
        <time>2011-06-08T14:01:23Z</time>
      </trkpt>
      <trkpt lat="43.51484" lon="6.05324">
        <ele>364</ele>
        <time>2011-06-08T14:01:33Z</time>
      </trkpt>
      <trkpt lat="43.51483" lon="6.05325">
        <ele>363.200012</ele>
        <time>2011-06-08T14:01:34Z</time>
      </trkpt>
      <trkpt lat="43.51469" lon="6.05335">
        <ele>362.200012</ele>
        <time>2011-06-08T14:01:53Z</time>
      </trkpt>
      <trkpt lat="43.51462" lon="6.05341">
        <ele>361.399994</ele>
        <time>2011-06-08T14:02:01Z</time>
      </trkpt>
      <trkpt lat="43.51454" lon="6.05345">
        <ele>360.700012</ele>
        <time>2011-06-08T14:02:10Z</time>
      </trkpt>
      <trkpt lat="43.51446" lon="6.05348">
        <ele>359.899994</ele>
        <time>2011-06-08T14:02:19Z</time>
      </trkpt>
      <trkpt lat="43.51438" lon="6.0535">
        <ele>358.700012</ele>
        <time>2011-06-08T14:02:27Z</time>
      </trkpt>
      <trkpt lat="43.51429" lon="6.0535">
        <ele>359.200012</ele>
        <time>2011-06-08T14:02:37Z</time>
      </trkpt>
      <trkpt lat="43.51428" lon="6.05351">
        <ele>359.299988</ele>
        <time>2011-06-08T14:02:38Z</time>
      </trkpt>
      <trkpt lat="43.51412" lon="6.05357">
        <ele>357.399994</ele>
        <time>2011-06-08T14:03:08Z</time>
      </trkpt>
      <trkpt lat="43.51405" lon="6.05363">
        <ele>356.200012</ele>
        <time>2011-06-08T14:04:42Z</time>
      </trkpt>
      <trkpt lat="43.51405" lon="6.05364">
        <ele>356.100006</ele>
        <time>2011-06-08T14:04:43Z</time>
      </trkpt>
      <trkpt lat="43.51415" lon="6.05381">
        <ele>357.200012</ele>
        <time>2011-06-08T14:05:01Z</time>
      </trkpt>
      <trkpt lat="43.51422" lon="6.05387">
        <ele>357.100006</ele>
        <time>2011-06-08T14:05:35Z</time>
      </trkpt>
      <trkpt lat="43.51429" lon="6.05394">
        <ele>357.5</ele>
        <time>2011-06-08T14:05:46Z</time>
      </trkpt>
      <trkpt lat="43.5143" lon="6.05394">
        <ele>357.600006</ele>
        <time>2011-06-08T14:05:47Z</time>
      </trkpt>
      <trkpt lat="43.51441" lon="6.0541">
        <ele>355.899994</ele>
        <time>2011-06-08T14:06:11Z</time>
      </trkpt>
      <trkpt lat="43.51448" lon="6.05418">
        <ele>354.200012</ele>
        <time>2011-06-08T14:06:21Z</time>
      </trkpt>
      <trkpt lat="43.51454" lon="6.05425">
        <ele>353.600006</ele>
        <time>2011-06-08T14:06:29Z</time>
      </trkpt>
      <trkpt lat="43.51461" lon="6.05432">
        <ele>352.799988</ele>
        <time>2011-06-08T14:06:37Z</time>
      </trkpt>
      <trkpt lat="43.51468" lon="6.05439">
        <ele>352.200012</ele>
        <time>2011-06-08T14:06:45Z</time>
      </trkpt>
      <trkpt lat="43.51475" lon="6.05447">
        <ele>351.200012</ele>
        <time>2011-06-08T14:06:54Z</time>
      </trkpt>
      <trkpt lat="43.51475" lon="6.05448">
        <ele>351.299988</ele>
        <time>2011-06-08T14:06:55Z</time>
      </trkpt>
      <trkpt lat="43.51489" lon="6.05459">
        <ele>348.700012</ele>
        <time>2011-06-08T14:07:10Z</time>
      </trkpt>
      <trkpt lat="43.51497" lon="6.05462">
        <ele>348.399994</ele>
        <time>2011-06-08T14:07:17Z</time>
      </trkpt>
      <trkpt lat="43.51505" lon="6.05465">
        <ele>347.100006</ele>
        <time>2011-06-08T14:07:25Z</time>
      </trkpt>
      <trkpt lat="43.51512" lon="6.05473">
        <ele>347.399994</ele>
        <time>2011-06-08T14:07:33Z</time>
      </trkpt>
      <trkpt lat="43.51518" lon="6.05481">
        <ele>346.5</ele>
        <time>2011-06-08T14:07:41Z</time>
      </trkpt>
      <trkpt lat="43.51525" lon="6.05488">
        <ele>346.600006</ele>
        <time>2011-06-08T14:07:48Z</time>
      </trkpt>
      <trkpt lat="43.51532" lon="6.05495">
        <ele>347.100006</ele>
        <time>2011-06-08T14:07:55Z</time>
      </trkpt>
      <trkpt lat="43.51532" lon="6.05496">
        <ele>346.799988</ele>
        <time>2011-06-08T14:07:56Z</time>
      </trkpt>
      <trkpt lat="43.51545" lon="6.0551">
        <ele>347.200012</ele>
        <time>2011-06-08T14:08:09Z</time>
      </trkpt>
      <trkpt lat="43.51552" lon="6.05517">
        <ele>346.100006</ele>
        <time>2011-06-08T14:08:17Z</time>
      </trkpt>
      <trkpt lat="43.51559" lon="6.05522">
        <ele>347</ele>
        <time>2011-06-08T14:08:24Z</time>
      </trkpt>
      <trkpt lat="43.51565" lon="6.05532">
        <ele>345.299988</ele>
        <time>2011-06-08T14:08:35Z</time>
      </trkpt>
      <trkpt lat="43.51561" lon="6.05542">
        <ele>344.700012</ele>
        <time>2011-06-08T14:08:46Z</time>
      </trkpt>
      <trkpt lat="43.51554" lon="6.05549">
        <ele>342.700012</ele>
        <time>2011-06-08T14:08:57Z</time>
      </trkpt>
      <trkpt lat="43.51553" lon="6.05549">
        <ele>342.600006</ele>
        <time>2011-06-08T14:08:58Z</time>
      </trkpt>
      <trkpt lat="43.51544" lon="6.05569">
        <ele>340.299988</ele>
        <time>2011-06-08T14:09:18Z</time>
      </trkpt>
      <trkpt lat="43.51541" lon="6.05579">
        <ele>337.399994</ele>
        <time>2011-06-08T14:09:29Z</time>
      </trkpt>
      <trkpt lat="43.51538" lon="6.05591">
        <ele>336.299988</ele>
        <time>2011-06-08T14:09:41Z</time>
      </trkpt>
      <trkpt lat="43.51537" lon="6.05603">
        <ele>334.700012</ele>
        <time>2011-06-08T14:09:51Z</time>
      </trkpt>
      <trkpt lat="43.51537" lon="6.05615">
        <ele>333.299988</ele>
        <time>2011-06-08T14:09:59Z</time>
      </trkpt>
      <trkpt lat="43.51537" lon="6.05617">
        <ele>333.200012</ele>
        <time>2011-06-08T14:10:00Z</time>
      </trkpt>
      <trkpt lat="43.51539" lon="6.05638">
        <ele>331.899994</ele>
        <time>2011-06-08T14:10:15Z</time>
      </trkpt>
      <trkpt lat="43.51541" lon="6.05649">
        <ele>331.700012</ele>
        <time>2011-06-08T14:10:22Z</time>
      </trkpt>
      <trkpt lat="43.51544" lon="6.0566">
        <ele>330.299988</ele>
        <time>2011-06-08T14:10:30Z</time>
      </trkpt>
      <trkpt lat="43.51547" lon="6.0567">
        <ele>329.5</ele>
        <time>2011-06-08T14:10:37Z</time>
      </trkpt>
      <trkpt lat="43.51548" lon="6.05681">
        <ele>329.899994</ele>
        <time>2011-06-08T14:10:45Z</time>
      </trkpt>
      <trkpt lat="43.5155" lon="6.05693">
        <ele>328.700012</ele>
        <time>2011-06-08T14:10:53Z</time>
      </trkpt>
      <trkpt lat="43.51552" lon="6.05705">
        <ele>328.100006</ele>
        <time>2011-06-08T14:11:01Z</time>
      </trkpt>
      <trkpt lat="43.51552" lon="6.05706">
        <ele>327.799988</ele>
        <time>2011-06-08T14:11:02Z</time>
      </trkpt>
      <trkpt lat="43.51557" lon="6.05727">
        <ele>327.799988</ele>
        <time>2011-06-08T14:11:16Z</time>
      </trkpt>
      <trkpt lat="43.51559" lon="6.05739">
        <ele>327.200012</ele>
        <time>2011-06-08T14:11:24Z</time>
      </trkpt>
      <trkpt lat="43.51562" lon="6.05751">
        <ele>327.5</ele>
        <time>2011-06-08T14:11:31Z</time>
      </trkpt>
      <trkpt lat="43.51564" lon="6.05762">
        <ele>327.299988</ele>
        <time>2011-06-08T14:11:39Z</time>
      </trkpt>
      <trkpt lat="43.51567" lon="6.05773">
        <ele>327.100006</ele>
        <time>2011-06-08T14:11:47Z</time>
      </trkpt>
      <trkpt lat="43.51572" lon="6.05783">
        <ele>327.799988</ele>
        <time>2011-06-08T14:11:54Z</time>
      </trkpt>
      <trkpt lat="43.51575" lon="6.05794">
        <ele>329.200012</ele>
        <time>2011-06-08T14:12:02Z</time>
      </trkpt>
      <trkpt lat="43.51575" lon="6.05795">
        <ele>329.399994</ele>
        <time>2011-06-08T14:12:03Z</time>
      </trkpt>
      <trkpt lat="43.5158" lon="6.05816">
        <ele>330.100006</ele>
        <time>2011-06-08T14:12:17Z</time>
      </trkpt>
      <trkpt lat="43.51583" lon="6.05827">
        <ele>330.799988</ele>
        <time>2011-06-08T14:12:24Z</time>
      </trkpt>
      <trkpt lat="43.51586" lon="6.05838">
        <ele>330.399994</ele>
        <time>2011-06-08T14:12:32Z</time>
      </trkpt>
      <trkpt lat="43.51587" lon="6.0585">
        <ele>331.100006</ele>
        <time>2011-06-08T14:12:39Z</time>
      </trkpt>
      <trkpt lat="43.5159" lon="6.05861">
        <ele>331.600006</ele>
        <time>2011-06-08T14:12:46Z</time>
      </trkpt>
      <trkpt lat="43.51595" lon="6.0587">
        <ele>332.100006</ele>
        <time>2011-06-08T14:12:52Z</time>
      </trkpt>
      <trkpt lat="43.516" lon="6.05878">
        <ele>331.100006</ele>
        <time>2011-06-08T14:12:59Z</time>
      </trkpt>
      <trkpt lat="43.51605" lon="6.05888">
        <ele>331.299988</ele>
        <time>2011-06-08T14:13:06Z</time>
      </trkpt>
      <trkpt lat="43.51606" lon="6.0589">
        <ele>331.600006</ele>
        <time>2011-06-08T14:13:07Z</time>
      </trkpt>
      <trkpt lat="43.51604" lon="6.0591">
        <ele>332.299988</ele>
        <time>2011-06-08T14:13:22Z</time>
      </trkpt>
      <trkpt lat="43.51596" lon="6.05912">
        <ele>332.5</ele>
        <time>2011-06-08T14:13:31Z</time>
      </trkpt>
      <trkpt lat="43.51588" lon="6.05914">
        <ele>331.5</ele>
        <time>2011-06-08T14:13:39Z</time>
      </trkpt>
      <trkpt lat="43.5158" lon="6.0592">
        <ele>330</ele>
        <time>2011-06-08T14:13:47Z</time>
      </trkpt>
      <trkpt lat="43.51573" lon="6.05928">
        <ele>328</ele>
        <time>2011-06-08T14:13:55Z</time>
      </trkpt>
      <trkpt lat="43.51569" lon="6.05936">
        <ele>327.700012</ele>
        <time>2011-06-08T14:14:02Z</time>
      </trkpt>
      <trkpt lat="43.51564" lon="6.05947">
        <ele>327.200012</ele>
        <time>2011-06-08T14:14:10Z</time>
      </trkpt>
      <trkpt lat="43.51563" lon="6.05948">
        <ele>327.299988</ele>
        <time>2011-06-08T14:14:11Z</time>
      </trkpt>
      <trkpt lat="43.51556" lon="6.05965">
        <ele>325.399994</ele>
        <time>2011-06-08T14:14:25Z</time>
      </trkpt>
      <trkpt lat="43.5155" lon="6.05975">
        <ele>324.200012</ele>
        <time>2011-06-08T14:14:33Z</time>
      </trkpt>
      <trkpt lat="43.51545" lon="6.05983">
        <ele>323.200012</ele>
        <time>2011-06-08T14:14:41Z</time>
      </trkpt>
      <trkpt lat="43.51539" lon="6.05993">
        <ele>322.5</ele>
        <time>2011-06-08T14:14:49Z</time>
      </trkpt>
      <trkpt lat="43.51531" lon="6.05997">
        <ele>319.700012</ele>
        <time>2011-06-08T14:14:57Z</time>
      </trkpt>
      <trkpt lat="43.51523" lon="6.05998">
        <ele>319.799988</ele>
        <time>2011-06-08T14:15:07Z</time>
      </trkpt>
      <trkpt lat="43.51515" lon="6.06001">
        <ele>318</ele>
        <time>2011-06-08T14:15:16Z</time>
      </trkpt>
      <trkpt lat="43.51514" lon="6.06002">
        <ele>318</ele>
        <time>2011-06-08T14:15:17Z</time>
      </trkpt>
      <trkpt lat="43.515" lon="6.06013">
        <ele>315.5</ele>
        <time>2011-06-08T14:15:31Z</time>
      </trkpt>
      <trkpt lat="43.51493" lon="6.06019">
        <ele>315.100006</ele>
        <time>2011-06-08T14:15:39Z</time>
      </trkpt>
      <trkpt lat="43.51488" lon="6.06029">
        <ele>314.100006</ele>
        <time>2011-06-08T14:15:47Z</time>
      </trkpt>
      <trkpt lat="43.51482" lon="6.06037">
        <ele>312.799988</ele>
        <time>2011-06-08T14:15:55Z</time>
      </trkpt>
      <trkpt lat="43.51475" lon="6.06044">
        <ele>311.600006</ele>
        <time>2011-06-08T14:16:03Z</time>
      </trkpt>
      <trkpt lat="43.51468" lon="6.0605">
        <ele>311.600006</ele>
        <time>2011-06-08T14:16:11Z</time>
      </trkpt>
      <trkpt lat="43.5146" lon="6.06055">
        <ele>309.799988</ele>
        <time>2011-06-08T14:16:18Z</time>
      </trkpt>
      <trkpt lat="43.51459" lon="6.06056">
        <ele>310.299988</ele>
        <time>2011-06-08T14:16:19Z</time>
      </trkpt>
      <trkpt lat="43.51449" lon="6.06071">
        <ele>310.899994</ele>
        <time>2011-06-08T14:16:32Z</time>
      </trkpt>
      <trkpt lat="43.51442" lon="6.06076">
        <ele>309.600006</ele>
        <time>2011-06-08T14:16:39Z</time>
      </trkpt>
      <trkpt lat="43.51434" lon="6.06074">
        <ele>309.399994</ele>
        <time>2011-06-08T14:16:47Z</time>
      </trkpt>
      <trkpt lat="43.51425" lon="6.06071">
        <ele>309.399994</ele>
        <time>2011-06-08T14:16:57Z</time>
      </trkpt>
      <trkpt lat="43.51417" lon="6.06069">
        <ele>307.799988</ele>
        <time>2011-06-08T14:17:05Z</time>
      </trkpt>
      <trkpt lat="43.51409" lon="6.06066">
        <ele>307.5</ele>
        <time>2011-06-08T14:17:13Z</time>
      </trkpt>
      <trkpt lat="43.514" lon="6.06063">
        <ele>307</ele>
        <time>2011-06-08T14:17:21Z</time>
      </trkpt>
      <trkpt lat="43.51399" lon="6.06063">
        <ele>307.100006</ele>
        <time>2011-06-08T14:17:22Z</time>
      </trkpt>
      <trkpt lat="43.51383" lon="6.06061">
        <ele>305.700012</ele>
        <time>2011-06-08T14:17:37Z</time>
      </trkpt>
      <trkpt lat="43.51376" lon="6.06058">
        <ele>306.700012</ele>
        <time>2011-06-08T14:17:45Z</time>
      </trkpt>
      <trkpt lat="43.51367" lon="6.06058">
        <ele>307</ele>
        <time>2011-06-08T14:17:52Z</time>
      </trkpt>
      <trkpt lat="43.51359" lon="6.06058">
        <ele>306.200012</ele>
        <time>2011-06-08T14:17:59Z</time>
      </trkpt>
      <trkpt lat="43.51351" lon="6.06057">
        <ele>306.200012</ele>
        <time>2011-06-08T14:18:07Z</time>
      </trkpt>
      <trkpt lat="43.51343" lon="6.06054">
        <ele>305.200012</ele>
        <time>2011-06-08T14:18:14Z</time>
      </trkpt>
      <trkpt lat="43.51336" lon="6.06051">
        <ele>304</ele>
        <time>2011-06-08T14:18:21Z</time>
      </trkpt>
      <trkpt lat="43.51327" lon="6.06049">
        <ele>303.299988</ele>
        <time>2011-06-08T14:18:28Z</time>
      </trkpt>
      <trkpt lat="43.51326" lon="6.06048">
        <ele>302.700012</ele>
        <time>2011-06-08T14:18:29Z</time>
      </trkpt>
      <trkpt lat="43.5131" lon="6.06043">
        <ele>303.5</ele>
        <time>2011-06-08T14:18:43Z</time>
      </trkpt>
      <trkpt lat="43.51302" lon="6.06041">
        <ele>302.299988</ele>
        <time>2011-06-08T14:18:51Z</time>
      </trkpt>
      <trkpt lat="43.51293" lon="6.06039">
        <ele>302.700012</ele>
        <time>2011-06-08T14:18:59Z</time>
      </trkpt>
      <trkpt lat="43.51285" lon="6.06034">
        <ele>303.399994</ele>
        <time>2011-06-08T14:19:07Z</time>
      </trkpt>
      <trkpt lat="43.51278" lon="6.06032">
        <ele>302</ele>
        <time>2011-06-08T14:19:14Z</time>
      </trkpt>
      <trkpt lat="43.5127" lon="6.06028">
        <ele>301.899994</ele>
        <time>2011-06-08T14:19:22Z</time>
      </trkpt>
      <trkpt lat="43.51262" lon="6.06027">
        <ele>301.700012</ele>
        <time>2011-06-08T14:19:29Z</time>
      </trkpt>
      <trkpt lat="43.51261" lon="6.06027">
        <ele>300.700012</ele>
        <time>2011-06-08T14:19:30Z</time>
      </trkpt>
      <trkpt lat="43.51246" lon="6.06022">
        <ele>300</ele>
        <time>2011-06-08T14:19:43Z</time>
      </trkpt>
      <trkpt lat="43.51238" lon="6.06019">
        <ele>299.899994</ele>
        <time>2011-06-08T14:19:50Z</time>
      </trkpt>
      <trkpt lat="43.5123" lon="6.06017">
        <ele>299</ele>
        <time>2011-06-08T14:19:57Z</time>
      </trkpt>
      <trkpt lat="43.51222" lon="6.06012">
        <ele>298.100006</ele>
        <time>2011-06-08T14:20:06Z</time>
      </trkpt>
      <trkpt lat="43.51215" lon="6.06007">
        <ele>298</ele>
        <time>2011-06-08T14:20:13Z</time>
      </trkpt>
      <trkpt lat="43.51206" lon="6.06004">
        <ele>297.5</ele>
        <time>2011-06-08T14:20:20Z</time>
      </trkpt>
      <trkpt lat="43.51198" lon="6.06001">
        <ele>298.299988</ele>
        <time>2011-06-08T14:20:27Z</time>
      </trkpt>
      <trkpt lat="43.51191" lon="6.05995">
        <ele>296.899994</ele>
        <time>2011-06-08T14:20:35Z</time>
      </trkpt>
      <trkpt lat="43.5119" lon="6.05994">
        <ele>297.200012</ele>
        <time>2011-06-08T14:20:36Z</time>
      </trkpt>
      <trkpt lat="43.51176" lon="6.05984">
        <ele>297.600006</ele>
        <time>2011-06-08T14:20:51Z</time>
      </trkpt>
      <trkpt lat="43.51168" lon="6.05979">
        <ele>296.299988</ele>
        <time>2011-06-08T14:20:59Z</time>
      </trkpt>
      <trkpt lat="43.5116" lon="6.05974">
        <ele>297.200012</ele>
        <time>2011-06-08T14:21:08Z</time>
      </trkpt>
      <trkpt lat="43.51152" lon="6.0597">
        <ele>296.5</ele>
        <time>2011-06-08T14:21:16Z</time>
      </trkpt>
      <trkpt lat="43.51144" lon="6.05966">
        <ele>296</ele>
        <time>2011-06-08T14:21:23Z</time>
      </trkpt>
      <trkpt lat="43.51136" lon="6.05963">
        <ele>295.399994</ele>
        <time>2011-06-08T14:21:31Z</time>
      </trkpt>
      <trkpt lat="43.51128" lon="6.0596">
        <ele>295.200012</ele>
        <time>2011-06-08T14:21:38Z</time>
      </trkpt>
      <trkpt lat="43.51127" lon="6.0596">
        <ele>295.299988</ele>
        <time>2011-06-08T14:21:39Z</time>
      </trkpt>
      <trkpt lat="43.5111" lon="6.05957">
        <ele>293.600006</ele>
        <time>2011-06-08T14:21:53Z</time>
      </trkpt>
      <trkpt lat="43.51102" lon="6.05957">
        <ele>293.700012</ele>
        <time>2011-06-08T14:22:00Z</time>
      </trkpt>
      <trkpt lat="43.51094" lon="6.0596">
        <ele>292.100006</ele>
        <time>2011-06-08T14:22:06Z</time>
      </trkpt>
      <trkpt lat="43.51087" lon="6.05966">
        <ele>292.299988</ele>
        <time>2011-06-08T14:22:12Z</time>
      </trkpt>
      <trkpt lat="43.5108" lon="6.05973">
        <ele>291.799988</ele>
        <time>2011-06-08T14:22:19Z</time>
      </trkpt>
      <trkpt lat="43.51073" lon="6.0598">
        <ele>290.700012</ele>
        <time>2011-06-08T14:22:26Z</time>
      </trkpt>
      <trkpt lat="43.51066" lon="6.05988">
        <ele>290</ele>
        <time>2011-06-08T14:22:35Z</time>
      </trkpt>
      <trkpt lat="43.51058" lon="6.05992">
        <ele>288.399994</ele>
        <time>2011-06-08T14:22:51Z</time>
      </trkpt>
      <trkpt lat="43.51057" lon="6.05992">
        <ele>288.600006</ele>
        <time>2011-06-08T14:22:52Z</time>
      </trkpt>
      <trkpt lat="43.51044" lon="6.06003">
        <ele>287</ele>
        <time>2011-06-08T14:23:09Z</time>
      </trkpt>
      <trkpt lat="43.51036" lon="6.06005">
        <ele>285.700012</ele>
        <time>2011-06-08T14:23:18Z</time>
      </trkpt>
      <trkpt lat="43.51027" lon="6.06006">
        <ele>285.399994</ele>
        <time>2011-06-08T14:23:28Z</time>
      </trkpt>
      <trkpt lat="43.51019" lon="6.06007">
        <ele>284.799988</ele>
        <time>2011-06-08T14:23:35Z</time>
      </trkpt>
      <trkpt lat="43.5101" lon="6.06009">
        <ele>284</ele>
        <time>2011-06-08T14:23:42Z</time>
      </trkpt>
      <trkpt lat="43.51002" lon="6.06012">
        <ele>284.600006</ele>
        <time>2011-06-08T14:23:51Z</time>
      </trkpt>
      <trkpt lat="43.50994" lon="6.06018">
        <ele>284.299988</ele>
        <time>2011-06-08T14:23:59Z</time>
      </trkpt>
      <trkpt lat="43.50993" lon="6.06018">
        <ele>283.799988</ele>
        <time>2011-06-08T14:24:00Z</time>
      </trkpt>
      <trkpt lat="43.50979" lon="6.06027">
        <ele>284</ele>
        <time>2011-06-08T14:24:16Z</time>
      </trkpt>
      <trkpt lat="43.50971" lon="6.06031">
        <ele>283.899994</ele>
        <time>2011-06-08T14:24:22Z</time>
      </trkpt>
      <trkpt lat="43.50964" lon="6.06037">
        <ele>284.5</ele>
        <time>2011-06-08T14:24:31Z</time>
      </trkpt>
      <trkpt lat="43.50957" lon="6.06043">
        <ele>284.200012</ele>
        <time>2011-06-08T14:24:39Z</time>
      </trkpt>
      <trkpt lat="43.50951" lon="6.06051">
        <ele>284.600006</ele>
        <time>2011-06-08T14:24:45Z</time>
      </trkpt>
      <trkpt lat="43.50945" lon="6.06059">
        <ele>284.399994</ele>
        <time>2011-06-08T14:24:51Z</time>
      </trkpt>
      <trkpt lat="43.50939" lon="6.06067">
        <ele>283.700012</ele>
        <time>2011-06-08T14:24:59Z</time>
      </trkpt>
      <trkpt lat="43.50932" lon="6.06074">
        <ele>283.700012</ele>
        <time>2011-06-08T14:25:06Z</time>
      </trkpt>
      <trkpt lat="43.50931" lon="6.06075">
        <ele>283.799988</ele>
        <time>2011-06-08T14:25:07Z</time>
      </trkpt>
      <trkpt lat="43.50918" lon="6.06085">
        <ele>284.5</ele>
        <time>2011-06-08T14:25:21Z</time>
      </trkpt>
      <trkpt lat="43.5091" lon="6.06089">
        <ele>285.100006</ele>
        <time>2011-06-08T14:25:28Z</time>
      </trkpt>
      <trkpt lat="43.50903" lon="6.06094">
        <ele>284.799988</ele>
        <time>2011-06-08T14:25:36Z</time>
      </trkpt>
      <trkpt lat="43.50895" lon="6.06097">
        <ele>283</ele>
        <time>2011-06-08T14:25:47Z</time>
      </trkpt>
      <trkpt lat="43.50886" lon="6.061">
        <ele>282.299988</ele>
        <time>2011-06-08T14:25:57Z</time>
      </trkpt>
      <trkpt lat="43.50878" lon="6.06103">
        <ele>282.100006</ele>
        <time>2011-06-08T14:26:06Z</time>
      </trkpt>
      <trkpt lat="43.5087" lon="6.06108">
        <ele>280.600006</ele>
        <time>2011-06-08T14:26:16Z</time>
      </trkpt>
      <trkpt lat="43.50869" lon="6.06108">
        <ele>280.799988</ele>
        <time>2011-06-08T14:26:17Z</time>
      </trkpt>
      <trkpt lat="43.50856" lon="6.06121">
        <ele>280.799988</ele>
        <time>2011-06-08T14:26:31Z</time>
      </trkpt>
      <trkpt lat="43.5085" lon="6.06128">
        <ele>280.5</ele>
        <time>2011-06-08T14:26:38Z</time>
      </trkpt>
      <trkpt lat="43.50846" lon="6.06137">
        <ele>279</ele>
        <time>2011-06-08T14:26:47Z</time>
      </trkpt>
      <trkpt lat="43.5084" lon="6.06146">
        <ele>279.200012</ele>
        <time>2011-06-08T14:26:54Z</time>
      </trkpt>
      <trkpt lat="43.50832" lon="6.06151">
        <ele>278</ele>
        <time>2011-06-08T14:27:01Z</time>
      </trkpt>
      <trkpt lat="43.50823" lon="6.06152">
        <ele>277.399994</ele>
        <time>2011-06-08T14:27:10Z</time>
      </trkpt>
      <trkpt lat="43.50816" lon="6.06154">
        <ele>277.600006</ele>
        <time>2011-06-08T14:27:16Z</time>
      </trkpt>
      <trkpt lat="43.50807" lon="6.06154">
        <ele>277.600006</ele>
        <time>2011-06-08T14:27:24Z</time>
      </trkpt>
      <trkpt lat="43.50806" lon="6.06153">
        <ele>277.799988</ele>
        <time>2011-06-08T14:27:25Z</time>
      </trkpt>
      <trkpt lat="43.50794" lon="6.0614">
        <ele>277.200012</ele>
        <time>2011-06-08T14:27:44Z</time>
      </trkpt>
      <trkpt lat="43.50785" lon="6.06138">
        <ele>276.399994</ele>
        <time>2011-06-08T14:27:53Z</time>
      </trkpt>
      <trkpt lat="43.50777" lon="6.06134">
        <ele>276.600006</ele>
        <time>2011-06-08T14:28:01Z</time>
      </trkpt>
      <trkpt lat="43.50769" lon="6.06132">
        <ele>275.899994</ele>
        <time>2011-06-08T14:28:08Z</time>
      </trkpt>
      <trkpt lat="43.50761" lon="6.06127">
        <ele>274.899994</ele>
        <time>2011-06-08T14:28:16Z</time>
      </trkpt>
      <trkpt lat="43.50753" lon="6.06123">
        <ele>276.299988</ele>
        <time>2011-06-08T14:28:23Z</time>
      </trkpt>
      <trkpt lat="43.50745" lon="6.06123">
        <ele>276.700012</ele>
        <time>2011-06-08T14:28:30Z</time>
      </trkpt>
      <trkpt lat="43.50744" lon="6.06124">
        <ele>276.899994</ele>
        <time>2011-06-08T14:28:31Z</time>
      </trkpt>
      <trkpt lat="43.50731" lon="6.0611">
        <ele>277.100006</ele>
        <time>2011-06-08T14:28:46Z</time>
      </trkpt>
      <trkpt lat="43.50727" lon="6.061">
        <ele>276.700012</ele>
        <time>2011-06-08T14:28:53Z</time>
      </trkpt>
      <trkpt lat="43.50723" lon="6.0609">
        <ele>277</ele>
        <time>2011-06-08T14:29:00Z</time>
      </trkpt>
      <trkpt lat="43.50717" lon="6.06081">
        <ele>277.100006</ele>
        <time>2011-06-08T14:29:08Z</time>
      </trkpt>
      <trkpt lat="43.5071" lon="6.06073">
        <ele>276.799988</ele>
        <time>2011-06-08T14:29:15Z</time>
      </trkpt>
      <trkpt lat="43.50703" lon="6.06067">
        <ele>277.299988</ele>
        <time>2011-06-08T14:29:22Z</time>
      </trkpt>
      <trkpt lat="43.50696" lon="6.06062">
        <ele>277.100006</ele>
        <time>2011-06-08T14:29:29Z</time>
      </trkpt>
      <trkpt lat="43.50688" lon="6.06058">
        <ele>276.5</ele>
        <time>2011-06-08T14:29:36Z</time>
      </trkpt>
      <trkpt lat="43.50686" lon="6.06058">
        <ele>276.600006</ele>
        <time>2011-06-08T14:29:37Z</time>
      </trkpt>
      <trkpt lat="43.50672" lon="6.06051">
        <ele>275</ele>
        <time>2011-06-08T14:29:51Z</time>
      </trkpt>
      <trkpt lat="43.50663" lon="6.06049">
        <ele>273.899994</ele>
        <time>2011-06-08T14:29:58Z</time>
      </trkpt>
      <trkpt lat="43.50654" lon="6.06049">
        <ele>273.399994</ele>
        <time>2011-06-08T14:30:05Z</time>
      </trkpt>
      <trkpt lat="43.50647" lon="6.06049">
        <ele>272.799988</ele>
        <time>2011-06-08T14:30:10Z</time>
      </trkpt>
      <trkpt lat="43.50638" lon="6.06048">
        <ele>271.600006</ele>
        <time>2011-06-08T14:30:17Z</time>
      </trkpt>
      <trkpt lat="43.5063" lon="6.06048">
        <ele>269.299988</ele>
        <time>2011-06-08T14:30:25Z</time>
      </trkpt>
      <trkpt lat="43.50622" lon="6.06048">
        <ele>268.899994</ele>
        <time>2011-06-08T14:30:33Z</time>
      </trkpt>
      <trkpt lat="43.50614" lon="6.0605">
        <ele>267.700012</ele>
        <time>2011-06-08T14:30:40Z</time>
      </trkpt>
      <trkpt lat="43.50613" lon="6.0605">
        <ele>267.600006</ele>
        <time>2011-06-08T14:30:41Z</time>
      </trkpt>
      <trkpt lat="43.50596" lon="6.0605">
        <ele>264</ele>
        <time>2011-06-08T14:30:58Z</time>
      </trkpt>
      <trkpt lat="43.50588" lon="6.06052">
        <ele>263.600006</ele>
        <time>2011-06-08T14:31:06Z</time>
      </trkpt>
      <trkpt lat="43.5058" lon="6.06056">
        <ele>261.399994</ele>
        <time>2011-06-08T14:31:14Z</time>
      </trkpt>
      <trkpt lat="43.50572" lon="6.0606">
        <ele>261.5</ele>
        <time>2011-06-08T14:31:21Z</time>
      </trkpt>
      <trkpt lat="43.50565" lon="6.06065">
        <ele>260.899994</ele>
        <time>2011-06-08T14:31:29Z</time>
      </trkpt>
      <trkpt lat="43.50556" lon="6.06068">
        <ele>259.600006</ele>
        <time>2011-06-08T14:31:47Z</time>
      </trkpt>
      <trkpt lat="43.50556" lon="6.06068">
        <ele>259.299988</ele>
        <time>2011-06-08T14:31:48Z</time>
      </trkpt>
      <trkpt lat="43.5054" lon="6.06076">
        <ele>259.100006</ele>
        <time>2011-06-08T14:32:02Z</time>
      </trkpt>
      <trkpt lat="43.50532" lon="6.0608">
        <ele>259</ele>
        <time>2011-06-08T14:32:12Z</time>
      </trkpt>
      <trkpt lat="43.50524" lon="6.06085">
        <ele>258.299988</ele>
        <time>2011-06-08T14:32:20Z</time>
      </trkpt>
      <trkpt lat="43.50516" lon="6.06091">
        <ele>258.100006</ele>
        <time>2011-06-08T14:32:28Z</time>
      </trkpt>
      <trkpt lat="43.50507" lon="6.06098">
        <ele>257</ele>
        <time>2011-06-08T14:32:39Z</time>
      </trkpt>
      <trkpt lat="43.50502" lon="6.06106">
        <ele>257.700012</ele>
        <time>2011-06-08T14:32:49Z</time>
      </trkpt>
      <trkpt lat="43.505" lon="6.06108">
        <ele>257.5</ele>
        <time>2011-06-08T14:32:50Z</time>
      </trkpt>
      <trkpt lat="43.50489" lon="6.06124">
        <ele>256.899994</ele>
        <time>2011-06-08T14:33:05Z</time>
      </trkpt>
      <trkpt lat="43.50484" lon="6.06133">
        <ele>255.399994</ele>
        <time>2011-06-08T14:33:21Z</time>
      </trkpt>
      <trkpt lat="43.5048" lon="6.06144">
        <ele>254</ele>
        <time>2011-06-08T14:33:39Z</time>
      </trkpt>
      <trkpt lat="43.50474" lon="6.06152">
        <ele>253.800003</ele>
        <time>2011-06-08T14:33:47Z</time>
      </trkpt>
      <trkpt lat="43.5047" lon="6.06162">
        <ele>252.5</ele>
        <time>2011-06-08T14:34:10Z</time>
      </trkpt>
      <trkpt lat="43.50469" lon="6.06163">
        <ele>252.699997</ele>
        <time>2011-06-08T14:34:11Z</time>
      </trkpt>
      <trkpt lat="43.5046" lon="6.06179">
        <ele>251.300003</ele>
        <time>2011-06-08T14:34:29Z</time>
      </trkpt>
      <trkpt lat="43.50453" lon="6.06185">
        <ele>251</ele>
        <time>2011-06-08T14:34:35Z</time>
      </trkpt>
      <trkpt lat="43.50446" lon="6.06193">
        <ele>249.800003</ele>
        <time>2011-06-08T14:34:41Z</time>
      </trkpt>
      <trkpt lat="43.5044" lon="6.06202">
        <ele>248</ele>
        <time>2011-06-08T14:34:52Z</time>
      </trkpt>
      <trkpt lat="43.50436" lon="6.06212">
        <ele>247.100006</ele>
        <time>2011-06-08T14:35:04Z</time>
      </trkpt>
      <trkpt lat="43.50433" lon="6.06224">
        <ele>244.5</ele>
        <time>2011-06-08T14:35:15Z</time>
      </trkpt>
      <trkpt lat="43.50432" lon="6.06225">
        <ele>244.300003</ele>
        <time>2011-06-08T14:35:16Z</time>
      </trkpt>
      <trkpt lat="43.50421" lon="6.06238">
        <ele>241.899994</ele>
        <time>2011-06-08T14:35:27Z</time>
      </trkpt>
      <trkpt lat="43.50413" lon="6.06244">
        <ele>241.300003</ele>
        <time>2011-06-08T14:35:33Z</time>
      </trkpt>
      <trkpt lat="43.50405" lon="6.06249">
        <ele>239.100006</ele>
        <time>2011-06-08T14:35:40Z</time>
      </trkpt>
      <trkpt lat="43.50397" lon="6.0625">
        <ele>239.100006</ele>
        <time>2011-06-08T14:35:48Z</time>
      </trkpt>
      <trkpt lat="43.50389" lon="6.06253">
        <ele>237.600006</ele>
        <time>2011-06-08T14:36:01Z</time>
      </trkpt>
      <trkpt lat="43.50382" lon="6.0626">
        <ele>237.300003</ele>
        <time>2011-06-08T14:36:09Z</time>
      </trkpt>
      <trkpt lat="43.50375" lon="6.06265">
        <ele>237.300003</ele>
        <time>2011-06-08T14:36:14Z</time>
      </trkpt>
      <trkpt lat="43.50367" lon="6.06271">
        <ele>237.600006</ele>
        <time>2011-06-08T14:36:19Z</time>
      </trkpt>
      <trkpt lat="43.50366" lon="6.06271">
        <ele>237.600006</ele>
        <time>2011-06-08T14:36:20Z</time>
      </trkpt>
      <trkpt lat="43.50351" lon="6.0627">
        <ele>236.800003</ele>
        <time>2011-06-08T14:36:31Z</time>
      </trkpt>
      <trkpt lat="43.50342" lon="6.0627">
        <ele>236.800003</ele>
        <time>2011-06-08T14:36:38Z</time>
      </trkpt>
      <trkpt lat="43.50335" lon="6.06273">
        <ele>237</ele>
        <time>2011-06-08T14:36:43Z</time>
      </trkpt>
      <trkpt lat="43.50328" lon="6.06278">
        <ele>236.699997</ele>
        <time>2011-06-08T14:36:48Z</time>
      </trkpt>
      <trkpt lat="43.5032" lon="6.06282">
        <ele>236</ele>
        <time>2011-06-08T14:36:56Z</time>
      </trkpt>
      <trkpt lat="43.50312" lon="6.06287">
        <ele>235</ele>
        <time>2011-06-08T14:37:03Z</time>
      </trkpt>
      <trkpt lat="43.50304" lon="6.0629">
        <ele>235.399994</ele>
        <time>2011-06-08T14:37:11Z</time>
      </trkpt>
      <trkpt lat="43.50295" lon="6.06292">
        <ele>233.800003</ele>
        <time>2011-06-08T14:37:24Z</time>
      </trkpt>
      <trkpt lat="43.50295" lon="6.06292">
        <ele>234.199997</ele>
        <time>2011-06-08T14:37:25Z</time>
      </trkpt>
      <trkpt lat="43.5028" lon="6.06301">
        <ele>233</ele>
        <time>2011-06-08T14:37:50Z</time>
      </trkpt>
      <trkpt lat="43.50272" lon="6.06305">
        <ele>233.399994</ele>
        <time>2011-06-08T14:37:58Z</time>
      </trkpt>
      <trkpt lat="43.50263" lon="6.06309">
        <ele>233.199997</ele>
        <time>2011-06-08T14:38:14Z</time>
      </trkpt>
      <trkpt lat="43.50255" lon="6.06313">
        <ele>232.899994</ele>
        <time>2011-06-08T14:38:20Z</time>
      </trkpt>
      <trkpt lat="43.50247" lon="6.06317">
        <ele>232.600006</ele>
        <time>2011-06-08T14:38:25Z</time>
      </trkpt>
      <trkpt lat="43.5024" lon="6.06322">
        <ele>231.100006</ele>
        <time>2011-06-08T14:38:33Z</time>
      </trkpt>
      <trkpt lat="43.50238" lon="6.06322">
        <ele>231.199997</ele>
        <time>2011-06-08T14:38:34Z</time>
      </trkpt>
      <trkpt lat="43.50223" lon="6.06326">
        <ele>228.800003</ele>
        <time>2011-06-08T14:38:51Z</time>
      </trkpt>
      <trkpt lat="43.50215" lon="6.06331">
        <ele>226.899994</ele>
        <time>2011-06-08T14:39:00Z</time>
      </trkpt>
      <trkpt lat="43.50207" lon="6.06335">
        <ele>224.399994</ele>
        <time>2011-06-08T14:39:10Z</time>
      </trkpt>
      <trkpt lat="43.50199" lon="6.06341">
        <ele>223.699997</ele>
        <time>2011-06-08T14:39:17Z</time>
      </trkpt>
      <trkpt lat="43.50192" lon="6.06346">
        <ele>223.199997</ele>
        <time>2011-06-08T14:39:24Z</time>
      </trkpt>
      <trkpt lat="43.50185" lon="6.06352">
        <ele>222.100006</ele>
        <time>2011-06-08T14:39:34Z</time>
      </trkpt>
      <trkpt lat="43.50184" lon="6.06352">
        <ele>222</ele>
        <time>2011-06-08T14:39:35Z</time>
      </trkpt>
      <trkpt lat="43.50169" lon="6.06361">
        <ele>219.800003</ele>
        <time>2011-06-08T14:39:48Z</time>
      </trkpt>
      <trkpt lat="43.5016" lon="6.06358">
        <ele>217.399994</ele>
        <time>2011-06-08T14:39:58Z</time>
      </trkpt>
      <trkpt lat="43.50152" lon="6.0636">
        <ele>215.199997</ele>
        <time>2011-06-08T14:40:05Z</time>
      </trkpt>
      <trkpt lat="43.50144" lon="6.06363">
        <ele>214.100006</ele>
        <time>2011-06-08T14:40:16Z</time>
      </trkpt>
      <trkpt lat="43.50135" lon="6.06366">
        <ele>212.800003</ele>
        <time>2011-06-08T14:40:23Z</time>
      </trkpt>
      <trkpt lat="43.50127" lon="6.06367">
        <ele>211.600006</ele>
        <time>2011-06-08T14:40:31Z</time>
      </trkpt>
      <trkpt lat="43.50118" lon="6.06369">
        <ele>211.800003</ele>
        <time>2011-06-08T14:40:37Z</time>
      </trkpt>
      <trkpt lat="43.50118" lon="6.06369">
        <ele>211</ele>
        <time>2011-06-08T14:40:38Z</time>
      </trkpt>
      <trkpt lat="43.50103" lon="6.06359">
        <ele>208.899994</ele>
        <time>2011-06-08T14:41:04Z</time>
      </trkpt>
      <trkpt lat="43.50095" lon="6.06353">
        <ele>207.800003</ele>
        <time>2011-06-08T14:41:13Z</time>
      </trkpt>
      <trkpt lat="43.50087" lon="6.06351">
        <ele>208</ele>
        <time>2011-06-08T14:41:21Z</time>
      </trkpt>
      <trkpt lat="43.50079" lon="6.06345">
        <ele>207.199997</ele>
        <time>2011-06-08T14:41:29Z</time>
      </trkpt>
      <trkpt lat="43.50071" lon="6.0634">
        <ele>206.5</ele>
        <time>2011-06-08T14:41:40Z</time>
      </trkpt>
      <trkpt lat="43.5007" lon="6.06339">
        <ele>206.300003</ele>
        <time>2011-06-08T14:41:41Z</time>
      </trkpt>
      <trkpt lat="43.50055" lon="6.06339">
        <ele>205.800003</ele>
        <time>2011-06-08T14:41:51Z</time>
      </trkpt>
      <trkpt lat="43.50047" lon="6.06336">
        <ele>204.199997</ele>
        <time>2011-06-08T14:42:02Z</time>
      </trkpt>
      <trkpt lat="43.50041" lon="6.06328">
        <ele>204.899994</ele>
        <time>2011-06-08T14:42:10Z</time>
      </trkpt>
      <trkpt lat="43.50033" lon="6.06325">
        <ele>204.399994</ele>
        <time>2011-06-08T14:42:17Z</time>
      </trkpt>
      <trkpt lat="43.50026" lon="6.06319">
        <ele>203.300003</ele>
        <time>2011-06-08T14:42:24Z</time>
      </trkpt>
      <trkpt lat="43.50019" lon="6.06312">
        <ele>202</ele>
        <time>2011-06-08T14:42:32Z</time>
      </trkpt>
      <trkpt lat="43.50012" lon="6.06308">
        <ele>201.5</ele>
        <time>2011-06-08T14:42:38Z</time>
      </trkpt>
      <trkpt lat="43.50004" lon="6.0631">
        <ele>201</ele>
        <time>2011-06-08T14:42:47Z</time>
      </trkpt>
      <trkpt lat="43.50003" lon="6.06309">
        <ele>200.399994</ele>
        <time>2011-06-08T14:42:48Z</time>
      </trkpt>
      <trkpt lat="43.49989" lon="6.06306">
        <ele>198.300003</ele>
        <time>2011-06-08T14:43:01Z</time>
      </trkpt>
      <trkpt lat="43.4998" lon="6.06308">
        <ele>198</ele>
        <time>2011-06-08T14:43:09Z</time>
      </trkpt>
      <trkpt lat="43.49972" lon="6.06312">
        <ele>196.899994</ele>
        <time>2011-06-08T14:43:20Z</time>
      </trkpt>
      <trkpt lat="43.49964" lon="6.06316">
        <ele>196.600006</ele>
        <time>2011-06-08T14:43:27Z</time>
      </trkpt>
      <trkpt lat="43.49957" lon="6.06322">
        <ele>197</ele>
        <time>2011-06-08T14:43:32Z</time>
      </trkpt>
      <trkpt lat="43.4995" lon="6.06328">
        <ele>196.5</ele>
        <time>2011-06-08T14:43:40Z</time>
      </trkpt>
      <trkpt lat="43.49941" lon="6.06332">
        <ele>195.899994</ele>
        <time>2011-06-08T14:44:01Z</time>
      </trkpt>
      <trkpt lat="43.4994" lon="6.06333">
        <ele>196.300003</ele>
        <time>2011-06-08T14:44:02Z</time>
      </trkpt>
      <trkpt lat="43.49927" lon="6.06345">
        <ele>194.5</ele>
        <time>2011-06-08T14:44:18Z</time>
      </trkpt>
      <trkpt lat="43.49921" lon="6.06354">
        <ele>194.600006</ele>
        <time>2011-06-08T14:44:27Z</time>
      </trkpt>
      <trkpt lat="43.49916" lon="6.06363">
        <ele>193.800003</ele>
        <time>2011-06-08T14:44:35Z</time>
      </trkpt>
      <trkpt lat="43.49911" lon="6.06373">
        <ele>194.199997</ele>
        <time>2011-06-08T14:44:44Z</time>
      </trkpt>
      <trkpt lat="43.49909" lon="6.06384">
        <ele>193.199997</ele>
        <time>2011-06-08T14:44:51Z</time>
      </trkpt>
      <trkpt lat="43.49904" lon="6.06395">
        <ele>193.300003</ele>
        <time>2011-06-08T14:44:59Z</time>
      </trkpt>
      <trkpt lat="43.499" lon="6.06405">
        <ele>192.899994</ele>
        <time>2011-06-08T14:45:06Z</time>
      </trkpt>
      <trkpt lat="43.49899" lon="6.06406">
        <ele>192.800003</ele>
        <time>2011-06-08T14:45:07Z</time>
      </trkpt>
      <trkpt lat="43.49892" lon="6.06425">
        <ele>192.600006</ele>
        <time>2011-06-08T14:45:20Z</time>
      </trkpt>
      <trkpt lat="43.4989" lon="6.06436">
        <ele>191.5</ele>
        <time>2011-06-08T14:45:27Z</time>
      </trkpt>
      <trkpt lat="43.49888" lon="6.06448">
        <ele>191.899994</ele>
        <time>2011-06-08T14:45:34Z</time>
      </trkpt>
      <trkpt lat="43.49886" lon="6.06458">
        <ele>191.300003</ele>
        <time>2011-06-08T14:45:41Z</time>
      </trkpt>
      <trkpt lat="43.49883" lon="6.06469">
        <ele>190.600006</ele>
        <time>2011-06-08T14:45:48Z</time>
      </trkpt>
      <trkpt lat="43.49881" lon="6.0648">
        <ele>191.5</ele>
        <time>2011-06-08T14:45:55Z</time>
      </trkpt>
      <trkpt lat="43.4988" lon="6.06491">
        <ele>191.5</ele>
        <time>2011-06-08T14:46:02Z</time>
      </trkpt>
      <trkpt lat="43.4988" lon="6.06503">
        <ele>191.5</ele>
        <time>2011-06-08T14:46:08Z</time>
      </trkpt>
      <trkpt lat="43.4988" lon="6.06504">
        <ele>191.699997</ele>
        <time>2011-06-08T14:46:09Z</time>
      </trkpt>
      <trkpt lat="43.49876" lon="6.06525">
        <ele>191.100006</ele>
        <time>2011-06-08T14:46:26Z</time>
      </trkpt>
      <trkpt lat="43.49873" lon="6.06536">
        <ele>191.100006</ele>
        <time>2011-06-08T14:46:35Z</time>
      </trkpt>
      <trkpt lat="43.49871" lon="6.06547">
        <ele>192.300003</ele>
        <time>2011-06-08T14:46:43Z</time>
      </trkpt>
      <trkpt lat="43.49869" lon="6.06558">
        <ele>192.699997</ele>
        <time>2011-06-08T14:46:50Z</time>
      </trkpt>
      <trkpt lat="43.49867" lon="6.0657">
        <ele>192.800003</ele>
        <time>2011-06-08T14:46:57Z</time>
      </trkpt>
      <trkpt lat="43.49866" lon="6.06581">
        <ele>192.199997</ele>
        <time>2011-06-08T14:47:05Z</time>
      </trkpt>
      <trkpt lat="43.49861" lon="6.0659">
        <ele>191.199997</ele>
        <time>2011-06-08T14:47:13Z</time>
      </trkpt>
      <trkpt lat="43.49861" lon="6.06591">
        <ele>191.5</ele>
        <time>2011-06-08T14:47:14Z</time>
      </trkpt>
      <trkpt lat="43.49852" lon="6.06609">
        <ele>190.800003</ele>
        <time>2011-06-08T14:47:33Z</time>
      </trkpt>
      <trkpt lat="43.49846" lon="6.06617">
        <ele>190.800003</ele>
        <time>2011-06-08T14:47:42Z</time>
      </trkpt>
      <trkpt lat="43.49841" lon="6.06627">
        <ele>189.699997</ele>
        <time>2011-06-08T14:47:50Z</time>
      </trkpt>
      <trkpt lat="43.49836" lon="6.06636">
        <ele>188.800003</ele>
        <time>2011-06-08T14:48:00Z</time>
      </trkpt>
      <trkpt lat="43.4983" lon="6.06645">
        <ele>188.5</ele>
        <time>2011-06-08T14:48:10Z</time>
      </trkpt>
      <trkpt lat="43.49824" lon="6.06653">
        <ele>187.300003</ele>
        <time>2011-06-08T14:48:18Z</time>
      </trkpt>
      <trkpt lat="43.49823" lon="6.06654">
        <ele>187.300003</ele>
        <time>2011-06-08T14:48:19Z</time>
      </trkpt>
      <trkpt lat="43.49811" lon="6.06669">
        <ele>185.699997</ele>
        <time>2011-06-08T14:48:34Z</time>
      </trkpt>
      <trkpt lat="43.49805" lon="6.06676">
        <ele>184.300003</ele>
        <time>2011-06-08T14:48:42Z</time>
      </trkpt>
      <trkpt lat="43.49798" lon="6.06683">
        <ele>182.699997</ele>
        <time>2011-06-08T14:48:49Z</time>
      </trkpt>
      <trkpt lat="43.4979" lon="6.06688">
        <ele>182.100006</ele>
        <time>2011-06-08T14:48:57Z</time>
      </trkpt>
      <trkpt lat="43.49783" lon="6.06694">
        <ele>181.699997</ele>
        <time>2011-06-08T14:49:04Z</time>
      </trkpt>
      <trkpt lat="43.49777" lon="6.06703">
        <ele>180</ele>
        <time>2011-06-08T14:49:15Z</time>
      </trkpt>
      <trkpt lat="43.49769" lon="6.06698">
        <ele>179.399994</ele>
        <time>2011-06-08T14:49:58Z</time>
      </trkpt>
      <trkpt lat="43.49769" lon="6.06697">
        <ele>179.199997</ele>
        <time>2011-06-08T14:49:59Z</time>
      </trkpt>
      <trkpt lat="43.49764" lon="6.06676">
        <ele>178.399994</ele>
        <time>2011-06-08T14:51:06Z</time>
      </trkpt>
      <trkpt lat="43.49763" lon="6.06674">
        <ele>178.399994</ele>
        <time>2011-06-08T14:51:07Z</time>
      </trkpt>
      <trkpt lat="43.49758" lon="6.06654">
        <ele>178.5</ele>
        <time>2011-06-08T14:51:21Z</time>
      </trkpt>
      <trkpt lat="43.49756" lon="6.06643">
        <ele>178.800003</ele>
        <time>2011-06-08T14:51:27Z</time>
      </trkpt>
      <trkpt lat="43.49753" lon="6.06632">
        <ele>178.800003</ele>
        <time>2011-06-08T14:51:33Z</time>
      </trkpt>
      <trkpt lat="43.49751" lon="6.06621">
        <ele>179.699997</ele>
        <time>2011-06-08T14:51:39Z</time>
      </trkpt>
      <trkpt lat="43.4975" lon="6.0661">
        <ele>179.800003</ele>
        <time>2011-06-08T14:51:45Z</time>
      </trkpt>
      <trkpt lat="43.49749" lon="6.06599">
        <ele>179.5</ele>
        <time>2011-06-08T14:51:52Z</time>
      </trkpt>
      <trkpt lat="43.49749" lon="6.06588">
        <ele>178.600006</ele>
        <time>2011-06-08T14:51:58Z</time>
      </trkpt>
      <trkpt lat="43.49748" lon="6.06577">
        <ele>179.199997</ele>
        <time>2011-06-08T14:52:04Z</time>
      </trkpt>
      <trkpt lat="43.49747" lon="6.06566">
        <ele>179.199997</ele>
        <time>2011-06-08T14:52:10Z</time>
      </trkpt>
      <trkpt lat="43.49747" lon="6.06564">
        <ele>179.399994</ele>
        <time>2011-06-08T14:52:11Z</time>
      </trkpt>
      <trkpt lat="43.49745" lon="6.06545">
        <ele>178.399994</ele>
        <time>2011-06-08T14:52:22Z</time>
      </trkpt>
      <trkpt lat="43.49744" lon="6.06533">
        <ele>178.699997</ele>
        <time>2011-06-08T14:52:29Z</time>
      </trkpt>
      <trkpt lat="43.49744" lon="6.06522">
        <ele>178.600006</ele>
        <time>2011-06-08T14:52:35Z</time>
      </trkpt>
      <trkpt lat="43.49742" lon="6.06511">
        <ele>179.100006</ele>
        <time>2011-06-08T14:52:41Z</time>
      </trkpt>
      <trkpt lat="43.49741" lon="6.065">
        <ele>179.5</ele>
        <time>2011-06-08T14:52:47Z</time>
      </trkpt>
      <trkpt lat="43.49738" lon="6.06488">
        <ele>179.399994</ele>
        <time>2011-06-08T14:52:54Z</time>
      </trkpt>
      <trkpt lat="43.49736" lon="6.06477">
        <ele>179.699997</ele>
        <time>2011-06-08T14:53:01Z</time>
      </trkpt>
      <trkpt lat="43.49734" lon="6.06466">
        <ele>179.300003</ele>
        <time>2011-06-08T14:53:08Z</time>
      </trkpt>
      <trkpt lat="43.4973" lon="6.06456">
        <ele>179.300003</ele>
        <time>2011-06-08T14:53:14Z</time>
      </trkpt>
      <trkpt lat="43.4973" lon="6.06454">
        <ele>178.800003</ele>
        <time>2011-06-08T14:53:15Z</time>
      </trkpt>
      <trkpt lat="43.49723" lon="6.06436">
        <ele>180.5</ele>
        <time>2011-06-08T14:53:26Z</time>
      </trkpt>
      <trkpt lat="43.49719" lon="6.06426">
        <ele>179.699997</ele>
        <time>2011-06-08T14:53:33Z</time>
      </trkpt>
      <trkpt lat="43.49715" lon="6.06416">
        <ele>180.300003</ele>
        <time>2011-06-08T14:53:40Z</time>
      </trkpt>
      <trkpt lat="43.49711" lon="6.06405">
        <ele>180.399994</ele>
        <time>2011-06-08T14:53:47Z</time>
      </trkpt>
      <trkpt lat="43.49707" lon="6.06395">
        <ele>180.5</ele>
        <time>2011-06-08T14:53:54Z</time>
      </trkpt>
      <trkpt lat="43.49703" lon="6.06385">
        <ele>180.5</ele>
        <time>2011-06-08T14:54:01Z</time>
      </trkpt>
      <trkpt lat="43.49698" lon="6.06375">
        <ele>180.899994</ele>
        <time>2011-06-08T14:54:08Z</time>
      </trkpt>
      <trkpt lat="43.49694" lon="6.06365">
        <ele>180.399994</ele>
        <time>2011-06-08T14:54:15Z</time>
      </trkpt>
      <trkpt lat="43.4969" lon="6.06356">
        <ele>180.699997</ele>
        <time>2011-06-08T14:54:22Z</time>
      </trkpt>
      <trkpt lat="43.49689" lon="6.06355">
        <ele>181</ele>
        <time>2011-06-08T14:54:23Z</time>
      </trkpt>
      <trkpt lat="43.49682" lon="6.06337">
        <ele>181.899994</ele>
        <time>2011-06-08T14:54:36Z</time>
      </trkpt>
      <trkpt lat="43.49678" lon="6.06325">
        <ele>181.399994</ele>
        <time>2011-06-08T14:54:44Z</time>
      </trkpt>
      <trkpt lat="43.49675" lon="6.06314">
        <ele>181.300003</ele>
        <time>2011-06-08T14:54:52Z</time>
      </trkpt>
      <trkpt lat="43.49672" lon="6.06302">
        <ele>181</ele>
        <time>2011-06-08T14:55:00Z</time>
      </trkpt>
      <trkpt lat="43.4967" lon="6.06292">
        <ele>181.199997</ele>
        <time>2011-06-08T14:55:07Z</time>
      </trkpt>
      <trkpt lat="43.49667" lon="6.06281">
        <ele>182.100006</ele>
        <time>2011-06-08T14:55:14Z</time>
      </trkpt>
      <trkpt lat="43.49664" lon="6.0627">
        <ele>181.199997</ele>
        <time>2011-06-08T14:55:21Z</time>
      </trkpt>
      <trkpt lat="43.49661" lon="6.06258">
        <ele>181.5</ele>
        <time>2011-06-08T14:55:29Z</time>
      </trkpt>
      <trkpt lat="43.49661" lon="6.06257">
        <ele>181.300003</ele>
        <time>2011-06-08T14:55:30Z</time>
      </trkpt>
      <trkpt lat="43.49656" lon="6.06235">
        <ele>181.899994</ele>
        <time>2011-06-08T14:55:43Z</time>
      </trkpt>
      <trkpt lat="43.49655" lon="6.06223">
        <ele>182.100006</ele>
        <time>2011-06-08T14:55:50Z</time>
      </trkpt>
      <trkpt lat="43.49656" lon="6.06212">
        <ele>182.100006</ele>
        <time>2011-06-08T14:55:57Z</time>
      </trkpt>
      <trkpt lat="43.49655" lon="6.062">
        <ele>181.899994</ele>
        <time>2011-06-08T14:56:04Z</time>
      </trkpt>
      <trkpt lat="43.49655" lon="6.06189">
        <ele>181.800003</ele>
        <time>2011-06-08T14:56:11Z</time>
      </trkpt>
      <trkpt lat="43.49653" lon="6.06177">
        <ele>182.100006</ele>
        <time>2011-06-08T14:56:17Z</time>
      </trkpt>
      <trkpt lat="43.49651" lon="6.06166">
        <ele>181.699997</ele>
        <time>2011-06-08T14:56:23Z</time>
      </trkpt>
      <trkpt lat="43.49649" lon="6.06155">
        <ele>181.399994</ele>
        <time>2011-06-08T14:56:29Z</time>
      </trkpt>
      <trkpt lat="43.49646" lon="6.06145">
        <ele>181.100006</ele>
        <time>2011-06-08T14:56:35Z</time>
      </trkpt>
      <trkpt lat="43.49646" lon="6.06143">
        <ele>181.5</ele>
        <time>2011-06-08T14:56:36Z</time>
      </trkpt>
      <trkpt lat="43.49642" lon="6.06122">
        <ele>180.899994</ele>
        <time>2011-06-08T14:56:48Z</time>
      </trkpt>
      <trkpt lat="43.49639" lon="6.06112">
        <ele>181</ele>
        <time>2011-06-08T14:56:54Z</time>
      </trkpt>
      <trkpt lat="43.49636" lon="6.06102">
        <ele>181.100006</ele>
        <time>2011-06-08T14:57:00Z</time>
      </trkpt>
      <trkpt lat="43.49633" lon="6.06092">
        <ele>180.899994</ele>
        <time>2011-06-08T14:57:06Z</time>
      </trkpt>
      <trkpt lat="43.49629" lon="6.06083">
        <ele>180.600006</ele>
        <time>2011-06-08T14:57:12Z</time>
      </trkpt>
      <trkpt lat="43.49625" lon="6.06072">
        <ele>180.199997</ele>
        <time>2011-06-08T14:57:19Z</time>
      </trkpt>
      <trkpt lat="43.49621" lon="6.06062">
        <ele>180.100006</ele>
        <time>2011-06-08T14:57:26Z</time>
      </trkpt>
      <trkpt lat="43.49617" lon="6.06053">
        <ele>179.600006</ele>
        <time>2011-06-08T14:57:32Z</time>
      </trkpt>
      <trkpt lat="43.49613" lon="6.06042">
        <ele>179.800003</ele>
        <time>2011-06-08T14:57:39Z</time>
      </trkpt>
      <trkpt lat="43.49613" lon="6.06041">
        <ele>179.600006</ele>
        <time>2011-06-08T14:57:40Z</time>
      </trkpt>
      <trkpt lat="43.49609" lon="6.0602">
        <ele>179.600006</ele>
        <time>2011-06-08T14:57:54Z</time>
      </trkpt>
      <trkpt lat="43.49607" lon="6.06009">
        <ele>178.600006</ele>
        <time>2011-06-08T14:58:00Z</time>
      </trkpt>
      <trkpt lat="43.49606" lon="6.05997">
        <ele>179.300003</ele>
        <time>2011-06-08T14:58:07Z</time>
      </trkpt>
      <trkpt lat="43.49605" lon="6.05985">
        <ele>178.199997</ele>
        <time>2011-06-08T14:58:14Z</time>
      </trkpt>
      <trkpt lat="43.49603" lon="6.05973">
        <ele>178.600006</ele>
        <time>2011-06-08T14:58:22Z</time>
      </trkpt>
      <trkpt lat="43.49602" lon="6.05962">
        <ele>178.899994</ele>
        <time>2011-06-08T14:58:29Z</time>
      </trkpt>
      <trkpt lat="43.49602" lon="6.05951">
        <ele>178.600006</ele>
        <time>2011-06-08T14:58:36Z</time>
      </trkpt>
      <trkpt lat="43.49602" lon="6.05939">
        <ele>178.699997</ele>
        <time>2011-06-08T14:58:44Z</time>
      </trkpt>
      <trkpt lat="43.49602" lon="6.05937">
        <ele>178.300003</ele>
        <time>2011-06-08T14:58:45Z</time>
      </trkpt>
      <trkpt lat="43.49604" lon="6.05917">
        <ele>177.899994</ele>
        <time>2011-06-08T14:58:56Z</time>
      </trkpt>
      <trkpt lat="43.49606" lon="6.05906">
        <ele>178.300003</ele>
        <time>2011-06-08T14:59:02Z</time>
      </trkpt>
      <trkpt lat="43.49608" lon="6.05894">
        <ele>178.300003</ele>
        <time>2011-06-08T14:59:08Z</time>
      </trkpt>
      <trkpt lat="43.4961" lon="6.05883">
        <ele>178.600006</ele>
        <time>2011-06-08T14:59:14Z</time>
      </trkpt>
      <trkpt lat="43.49612" lon="6.05871">
        <ele>179</ele>
        <time>2011-06-08T14:59:21Z</time>
      </trkpt>
      <trkpt lat="43.49614" lon="6.05859">
        <ele>179.300003</ele>
        <time>2011-06-08T14:59:28Z</time>
      </trkpt>
      <trkpt lat="43.49615" lon="6.05848">
        <ele>179.100006</ele>
        <time>2011-06-08T14:59:35Z</time>
      </trkpt>
      <trkpt lat="43.49616" lon="6.05837">
        <ele>179.399994</ele>
        <time>2011-06-08T14:59:42Z</time>
      </trkpt>
      <trkpt lat="43.49616" lon="6.05825">
        <ele>178</ele>
        <time>2011-06-08T14:59:49Z</time>
      </trkpt>
      <trkpt lat="43.49616" lon="6.05824">
        <ele>177.800003</ele>
        <time>2011-06-08T14:59:50Z</time>
      </trkpt>
      <trkpt lat="43.49616" lon="6.05803">
        <ele>179.199997</ele>
        <time>2011-06-08T15:00:02Z</time>
      </trkpt>
      <trkpt lat="43.49616" lon="6.05791">
        <ele>178.199997</ele>
        <time>2011-06-08T15:00:09Z</time>
      </trkpt>
      <trkpt lat="43.49615" lon="6.0578">
        <ele>177.600006</ele>
        <time>2011-06-08T15:00:15Z</time>
      </trkpt>
      <trkpt lat="43.49617" lon="6.05769">
        <ele>178.5</ele>
        <time>2011-06-08T15:00:21Z</time>
      </trkpt>
      <trkpt lat="43.49618" lon="6.05758">
        <ele>178</ele>
        <time>2011-06-08T15:00:27Z</time>
      </trkpt>
      <trkpt lat="43.49618" lon="6.05747">
        <ele>178.399994</ele>
        <time>2011-06-08T15:00:33Z</time>
      </trkpt>
      <trkpt lat="43.49619" lon="6.05736">
        <ele>178.399994</ele>
        <time>2011-06-08T15:00:40Z</time>
      </trkpt>
      <trkpt lat="43.49619" lon="6.05724">
        <ele>178.600006</ele>
        <time>2011-06-08T15:00:47Z</time>
      </trkpt>
      <trkpt lat="43.49618" lon="6.05713">
        <ele>179.300003</ele>
        <time>2011-06-08T15:00:53Z</time>
      </trkpt>
      <trkpt lat="43.49619" lon="6.05711">
        <ele>179.5</ele>
        <time>2011-06-08T15:00:54Z</time>
      </trkpt>
      <trkpt lat="43.49627" lon="6.05694">
        <ele>178.899994</ele>
        <time>2011-06-08T15:01:08Z</time>
      </trkpt>
      <trkpt lat="43.49632" lon="6.05685">
        <ele>178.5</ele>
        <time>2011-06-08T15:01:15Z</time>
      </trkpt>
      <trkpt lat="43.49637" lon="6.05674">
        <ele>178.800003</ele>
        <time>2011-06-08T15:01:23Z</time>
      </trkpt>
      <trkpt lat="43.49641" lon="6.05665">
        <ele>179.100006</ele>
        <time>2011-06-08T15:01:31Z</time>
      </trkpt>
      <trkpt lat="43.49645" lon="6.05654">
        <ele>178.5</ele>
        <time>2011-06-08T15:01:41Z</time>
      </trkpt>
      <trkpt lat="43.49652" lon="6.05648">
        <ele>179</ele>
        <time>2011-06-08T15:02:00Z</time>
      </trkpt>
      <trkpt lat="43.49653" lon="6.05647">
        <ele>179</ele>
        <time>2011-06-08T15:02:01Z</time>
      </trkpt>
      <trkpt lat="43.49659" lon="6.05627">
        <ele>178.600006</ele>
        <time>2011-06-08T15:02:16Z</time>
      </trkpt>
      <trkpt lat="43.49663" lon="6.05616">
        <ele>178.800003</ele>
        <time>2011-06-08T15:02:23Z</time>
      </trkpt>
      <trkpt lat="43.49666" lon="6.05606">
        <ele>179.199997</ele>
        <time>2011-06-08T15:02:30Z</time>
      </trkpt>
      <trkpt lat="43.4967" lon="6.05596">
        <ele>178.899994</ele>
        <time>2011-06-08T15:02:38Z</time>
      </trkpt>
      <trkpt lat="43.49672" lon="6.05585">
        <ele>178.300003</ele>
        <time>2011-06-08T15:02:47Z</time>
      </trkpt>
      <trkpt lat="43.49672" lon="6.05573">
        <ele>177.199997</ele>
        <time>2011-06-08T15:02:59Z</time>
      </trkpt>
      <trkpt lat="43.49671" lon="6.05561">
        <ele>177.5</ele>
        <time>2011-06-08T15:03:12Z</time>
      </trkpt>
      <trkpt lat="43.49671" lon="6.05561">
        <ele>177.5</ele>
        <time>2011-06-08T15:03:13Z</time>
      </trkpt>
    </trkseg>
  </trk>
</gpx>